<?xml version="1.0" encoding="UTF-8" standalone="no" ?>
<gpx xmlns="http://www.topografix.com/GPX/1/1" xmlns:xsi="http://www.w3.org/2001/XMLSchema-instance" xsi:schemaLocation="http://www.topografix.com/GPX/1/1 http://www.topografix.com/GPX/1/1/gpx.xsd" version="1.1" creator="VisuGPX - https://www.visugpx.com">
  <metadata>
    <name>CHENOVE Marche du mardi 24 juillet 2012</name>
    <desc><![CDATA[Marche libre avec Francesco]]></desc>
  </metadata>
  <trk>
    <name><![CDATA[CHENOVE Marche du mardi 24 juillet 2012_1]]></name>
    <trkseg>
      <trkpt lat="47.2925" lon="5.00598">
        <ele>265.364</ele>
        <time>2012-07-24T07:33:36Z</time>
      </trkpt>
      <trkpt lat="47.29258" lon="5.00578">
        <ele>267.94</ele>
        <time>2012-07-24T07:33:47Z</time>
      </trkpt>
      <trkpt lat="47.29265" lon="5.00558">
        <ele>268.583</ele>
        <time>2012-07-24T07:33:58Z</time>
      </trkpt>
      <trkpt lat="47.2927" lon="5.00543">
        <ele>269.926</ele>
        <time>2012-07-24T07:34:09Z</time>
      </trkpt>
      <trkpt lat="47.29273" lon="5.00532">
        <ele>272.701</ele>
        <time>2012-07-24T07:34:20Z</time>
      </trkpt>
      <trkpt lat="47.29278" lon="5.00525">
        <ele>277.791</ele>
        <time>2012-07-24T07:34:31Z</time>
      </trkpt>
      <trkpt lat="47.29282" lon="5.0051">
        <ele>283.937</ele>
        <time>2012-07-24T07:34:42Z</time>
      </trkpt>
      <trkpt lat="47.29282" lon="5.00492">
        <ele>288.281</ele>
        <time>2012-07-24T07:34:53Z</time>
      </trkpt>
      <trkpt lat="47.29288" lon="5.00475">
        <ele>295.25</ele>
        <time>2012-07-24T07:35:04Z</time>
      </trkpt>
      <trkpt lat="47.2929" lon="5.00447">
        <ele>298.885</ele>
        <time>2012-07-24T07:35:15Z</time>
      </trkpt>
      <trkpt lat="47.29287" lon="5.00432">
        <ele>303.637</ele>
        <time>2012-07-24T07:35:26Z</time>
      </trkpt>
      <trkpt lat="47.29287" lon="5.00415">
        <ele>307.325</ele>
        <time>2012-07-24T07:35:37Z</time>
      </trkpt>
      <trkpt lat="47.29292" lon="5.00402">
        <ele>312.815</ele>
        <time>2012-07-24T07:35:48Z</time>
      </trkpt>
      <trkpt lat="47.29305" lon="5.004">
        <ele>313.532</ele>
        <time>2012-07-24T07:35:59Z</time>
      </trkpt>
      <trkpt lat="47.29313" lon="5.00405">
        <ele>316.621</ele>
        <time>2012-07-24T07:36:10Z</time>
      </trkpt>
      <trkpt lat="47.29322" lon="5.00397">
        <ele>317.759</ele>
        <time>2012-07-24T07:36:21Z</time>
      </trkpt>
      <trkpt lat="47.29328" lon="5.00383">
        <ele>322.589</ele>
        <time>2012-07-24T07:36:32Z</time>
      </trkpt>
      <trkpt lat="47.29343" lon="5.00382">
        <ele>325.288</ele>
        <time>2012-07-24T07:36:43Z</time>
      </trkpt>
      <trkpt lat="47.29355" lon="5.00383">
        <ele>326.738</ele>
        <time>2012-07-24T07:36:54Z</time>
      </trkpt>
      <trkpt lat="47.2937" lon="5.00382">
        <ele>325.687</ele>
        <time>2012-07-24T07:37:05Z</time>
      </trkpt>
      <trkpt lat="47.29385" lon="5.00373">
        <ele>322.673</ele>
        <time>2012-07-24T07:37:16Z</time>
      </trkpt>
      <trkpt lat="47.29402" lon="5.0037">
        <ele>317.01</ele>
        <time>2012-07-24T07:37:27Z</time>
      </trkpt>
      <trkpt lat="47.29412" lon="5.00367">
        <ele>314.564</ele>
        <time>2012-07-24T07:37:38Z</time>
      </trkpt>
      <trkpt lat="47.29422" lon="5.00363">
        <ele>309.159</ele>
        <time>2012-07-24T07:37:49Z</time>
      </trkpt>
      <trkpt lat="47.29433" lon="5.00362">
        <ele>306.847</ele>
        <time>2012-07-24T07:38:00Z</time>
      </trkpt>
      <trkpt lat="47.29448" lon="5.00367">
        <ele>303.738</ele>
        <time>2012-07-24T07:38:11Z</time>
      </trkpt>
      <trkpt lat="47.29463" lon="5.00372">
        <ele>301.183</ele>
        <time>2012-07-24T07:38:22Z</time>
      </trkpt>
      <trkpt lat="47.29475" lon="5.00357">
        <ele>296.703</ele>
        <time>2012-07-24T07:38:33Z</time>
      </trkpt>
      <trkpt lat="47.29482" lon="5.00338">
        <ele>295.74</ele>
        <time>2012-07-24T07:38:44Z</time>
      </trkpt>
      <trkpt lat="47.29492" lon="5.00317">
        <ele>296.351</ele>
        <time>2012-07-24T07:38:55Z</time>
      </trkpt>
      <trkpt lat="47.29502" lon="5.00302">
        <ele>296.756</ele>
        <time>2012-07-24T07:39:06Z</time>
      </trkpt>
      <trkpt lat="47.29505" lon="5.00282">
        <ele>295.887</ele>
        <time>2012-07-24T07:39:17Z</time>
      </trkpt>
      <trkpt lat="47.29512" lon="5.00258">
        <ele>295.801</ele>
        <time>2012-07-24T07:39:28Z</time>
      </trkpt>
      <trkpt lat="47.29518" lon="5.00238">
        <ele>295.182</ele>
        <time>2012-07-24T07:39:39Z</time>
      </trkpt>
      <trkpt lat="47.29525" lon="5.00222">
        <ele>293.756</ele>
        <time>2012-07-24T07:39:50Z</time>
      </trkpt>
      <trkpt lat="47.29538" lon="5.00212">
        <ele>293.209</ele>
        <time>2012-07-24T07:40:01Z</time>
      </trkpt>
      <trkpt lat="47.29548" lon="5.00202">
        <ele>293.863</ele>
        <time>2012-07-24T07:40:12Z</time>
      </trkpt>
      <trkpt lat="47.29558" lon="5.00188">
        <ele>295.637</ele>
        <time>2012-07-24T07:40:23Z</time>
      </trkpt>
      <trkpt lat="47.2957" lon="5.00172">
        <ele>294.671</ele>
        <time>2012-07-24T07:40:34Z</time>
      </trkpt>
      <trkpt lat="47.29578" lon="5.0016">
        <ele>296.37</ele>
        <time>2012-07-24T07:40:45Z</time>
      </trkpt>
      <trkpt lat="47.29585" lon="5.0014">
        <ele>296.488</ele>
        <time>2012-07-24T07:40:56Z</time>
      </trkpt>
      <trkpt lat="47.2959" lon="5.00122">
        <ele>298.723</ele>
        <time>2012-07-24T07:41:07Z</time>
      </trkpt>
      <trkpt lat="47.29597" lon="5.00103">
        <ele>299.183</ele>
        <time>2012-07-24T07:41:18Z</time>
      </trkpt>
      <trkpt lat="47.29602" lon="5.00082">
        <ele>299.837</ele>
        <time>2012-07-24T07:41:29Z</time>
      </trkpt>
      <trkpt lat="47.2961" lon="5.00063">
        <ele>298.48</ele>
        <time>2012-07-24T07:41:40Z</time>
      </trkpt>
      <trkpt lat="47.29618" lon="5.00045">
        <ele>296.783</ele>
        <time>2012-07-24T07:41:51Z</time>
      </trkpt>
      <trkpt lat="47.29623" lon="5.00027">
        <ele>297.427</ele>
        <time>2012-07-24T07:42:02Z</time>
      </trkpt>
      <trkpt lat="47.29627" lon="5.00008">
        <ele>298.462</ele>
        <time>2012-07-24T07:42:13Z</time>
      </trkpt>
      <trkpt lat="47.29628" lon="4.9999">
        <ele>299.14</ele>
        <time>2012-07-24T07:42:24Z</time>
      </trkpt>
      <trkpt lat="47.29625" lon="4.99973">
        <ele>301.063</ele>
        <time>2012-07-24T07:42:35Z</time>
      </trkpt>
      <trkpt lat="47.29617" lon="4.99958">
        <ele>303.225</ele>
        <time>2012-07-24T07:42:46Z</time>
      </trkpt>
      <trkpt lat="47.29608" lon="4.9995">
        <ele>306.796</ele>
        <time>2012-07-24T07:42:57Z</time>
      </trkpt>
      <trkpt lat="47.29602" lon="4.99937">
        <ele>308.374</ele>
        <time>2012-07-24T07:43:08Z</time>
      </trkpt>
      <trkpt lat="47.29593" lon="4.99922">
        <ele>309.714</ele>
        <time>2012-07-24T07:43:19Z</time>
      </trkpt>
      <trkpt lat="47.29587" lon="4.99908">
        <ele>311.662</ele>
        <time>2012-07-24T07:43:30Z</time>
      </trkpt>
      <trkpt lat="47.29578" lon="4.999">
        <ele>314.465</ele>
        <time>2012-07-24T07:43:41Z</time>
      </trkpt>
      <trkpt lat="47.29563" lon="4.99893">
        <ele>316.977</ele>
        <time>2012-07-24T07:43:52Z</time>
      </trkpt>
      <trkpt lat="47.2955" lon="4.99885">
        <ele>318.334</ele>
        <time>2012-07-24T07:44:03Z</time>
      </trkpt>
      <trkpt lat="47.29543" lon="4.99878">
        <ele>319.516</ele>
        <time>2012-07-24T07:44:14Z</time>
      </trkpt>
      <trkpt lat="47.29528" lon="4.99868">
        <ele>318.157</ele>
        <time>2012-07-24T07:44:25Z</time>
      </trkpt>
      <trkpt lat="47.2952" lon="4.99858">
        <ele>317.57</ele>
        <time>2012-07-24T07:44:36Z</time>
      </trkpt>
      <trkpt lat="47.29507" lon="4.99852">
        <ele>318.432</ele>
        <time>2012-07-24T07:44:47Z</time>
      </trkpt>
      <trkpt lat="47.29503" lon="4.9984">
        <ele>319.892</ele>
        <time>2012-07-24T07:44:58Z</time>
      </trkpt>
      <trkpt lat="47.29502" lon="4.99828">
        <ele>322.672</ele>
        <time>2012-07-24T07:45:09Z</time>
      </trkpt>
      <trkpt lat="47.29498" lon="4.99815">
        <ele>325.624</ele>
        <time>2012-07-24T07:45:20Z</time>
      </trkpt>
      <trkpt lat="47.29493" lon="4.99803">
        <ele>328.035</ele>
        <time>2012-07-24T07:45:31Z</time>
      </trkpt>
      <trkpt lat="47.29492" lon="4.99798">
        <ele>328.187</ele>
        <time>2012-07-24T07:45:42Z</time>
      </trkpt>
      <trkpt lat="47.29493" lon="4.99792">
        <ele>329.77</ele>
        <time>2012-07-24T07:45:53Z</time>
      </trkpt>
      <trkpt lat="47.29495" lon="4.9978">
        <ele>330.628</ele>
        <time>2012-07-24T07:46:04Z</time>
      </trkpt>
      <trkpt lat="47.29495" lon="4.9977">
        <ele>331.817</ele>
        <time>2012-07-24T07:46:15Z</time>
      </trkpt>
      <trkpt lat="47.29502" lon="4.99762">
        <ele>331.711</ele>
        <time>2012-07-24T07:46:26Z</time>
      </trkpt>
      <trkpt lat="47.29507" lon="4.99762">
        <ele>333.297</ele>
        <time>2012-07-24T07:46:37Z</time>
      </trkpt>
      <trkpt lat="47.29513" lon="4.9976">
        <ele>335.339</ele>
        <time>2012-07-24T07:46:48Z</time>
      </trkpt>
      <trkpt lat="47.29525" lon="4.99758">
        <ele>335.646</ele>
        <time>2012-07-24T07:46:59Z</time>
      </trkpt>
      <trkpt lat="47.2953" lon="4.99757">
        <ele>336.613</ele>
        <time>2012-07-24T07:47:10Z</time>
      </trkpt>
      <trkpt lat="47.29538" lon="4.99753">
        <ele>339.197</ele>
        <time>2012-07-24T07:47:21Z</time>
      </trkpt>
      <trkpt lat="47.29553" lon="4.99753">
        <ele>341.27</ele>
        <time>2012-07-24T07:47:32Z</time>
      </trkpt>
      <trkpt lat="47.29563" lon="4.99747">
        <ele>342.241</ele>
        <time>2012-07-24T07:47:43Z</time>
      </trkpt>
      <trkpt lat="47.29575" lon="4.99747">
        <ele>341.993</ele>
        <time>2012-07-24T07:47:54Z</time>
      </trkpt>
      <trkpt lat="47.29593" lon="4.99753">
        <ele>343.524</ele>
        <time>2012-07-24T07:48:05Z</time>
      </trkpt>
      <trkpt lat="47.29607" lon="4.99758">
        <ele>345.556</ele>
        <time>2012-07-24T07:48:16Z</time>
      </trkpt>
      <trkpt lat="47.29622" lon="4.99762">
        <ele>345.716</ele>
        <time>2012-07-24T07:48:27Z</time>
      </trkpt>
      <trkpt lat="47.29633" lon="4.99763">
        <ele>347.484</ele>
        <time>2012-07-24T07:48:38Z</time>
      </trkpt>
      <trkpt lat="47.29647" lon="4.99767">
        <ele>350.231</ele>
        <time>2012-07-24T07:48:49Z</time>
      </trkpt>
      <trkpt lat="47.2966" lon="4.9977">
        <ele>351.669</ele>
        <time>2012-07-24T07:49:00Z</time>
      </trkpt>
      <trkpt lat="47.29668" lon="4.9977">
        <ele>353.78</ele>
        <time>2012-07-24T07:49:11Z</time>
      </trkpt>
      <trkpt lat="47.29683" lon="4.99778">
        <ele>352.939</ele>
        <time>2012-07-24T07:49:22Z</time>
      </trkpt>
      <trkpt lat="47.29695" lon="4.99782">
        <ele>354.641</ele>
        <time>2012-07-24T07:49:33Z</time>
      </trkpt>
      <trkpt lat="47.29707" lon="4.99787">
        <ele>354.574</ele>
        <time>2012-07-24T07:49:44Z</time>
      </trkpt>
      <trkpt lat="47.2972" lon="4.99793">
        <ele>354.397</ele>
        <time>2012-07-24T07:49:55Z</time>
      </trkpt>
      <trkpt lat="47.29735" lon="4.99793">
        <ele>354.379</ele>
        <time>2012-07-24T07:50:06Z</time>
      </trkpt>
      <trkpt lat="47.29748" lon="4.99795">
        <ele>351.714</ele>
        <time>2012-07-24T07:50:17Z</time>
      </trkpt>
      <trkpt lat="47.29762" lon="4.99802">
        <ele>351.697</ele>
        <time>2012-07-24T07:50:28Z</time>
      </trkpt>
      <trkpt lat="47.2977" lon="4.99803">
        <ele>352.213</ele>
        <time>2012-07-24T07:50:39Z</time>
      </trkpt>
      <trkpt lat="47.29785" lon="4.99808">
        <ele>351.645</ele>
        <time>2012-07-24T07:50:50Z</time>
      </trkpt>
      <trkpt lat="47.29802" lon="4.99805">
        <ele>350.598</ele>
        <time>2012-07-24T07:51:01Z</time>
      </trkpt>
      <trkpt lat="47.2981" lon="4.99808">
        <ele>350.862</ele>
        <time>2012-07-24T07:51:12Z</time>
      </trkpt>
      <trkpt lat="47.29827" lon="4.9981">
        <ele>352.032</ele>
        <time>2012-07-24T07:51:23Z</time>
      </trkpt>
      <trkpt lat="47.29842" lon="4.9981">
        <ele>352.842</ele>
        <time>2012-07-24T07:51:34Z</time>
      </trkpt>
      <trkpt lat="47.29852" lon="4.99808">
        <ele>353.823</ele>
        <time>2012-07-24T07:51:45Z</time>
      </trkpt>
      <trkpt lat="47.29862" lon="4.99805">
        <ele>352.671</ele>
        <time>2012-07-24T07:51:56Z</time>
      </trkpt>
      <trkpt lat="47.29872" lon="4.99793">
        <ele>353.038</ele>
        <time>2012-07-24T07:52:07Z</time>
      </trkpt>
      <trkpt lat="47.2988" lon="4.99788">
        <ele>354.873</ele>
        <time>2012-07-24T07:52:18Z</time>
      </trkpt>
      <trkpt lat="47.29892" lon="4.99782">
        <ele>355.995</ele>
        <time>2012-07-24T07:52:29Z</time>
      </trkpt>
      <trkpt lat="47.299" lon="4.99775">
        <ele>356.814</ele>
        <time>2012-07-24T07:52:40Z</time>
      </trkpt>
      <trkpt lat="47.2991" lon="4.99767">
        <ele>357.362</ele>
        <time>2012-07-24T07:52:51Z</time>
      </trkpt>
      <trkpt lat="47.2992" lon="4.99753">
        <ele>357.867</ele>
        <time>2012-07-24T07:53:02Z</time>
      </trkpt>
      <trkpt lat="47.29928" lon="4.99738">
        <ele>359.572</ele>
        <time>2012-07-24T07:53:13Z</time>
      </trkpt>
      <trkpt lat="47.29938" lon="4.99723">
        <ele>363.282</ele>
        <time>2012-07-24T07:53:24Z</time>
      </trkpt>
      <trkpt lat="47.29948" lon="4.99712">
        <ele>364.842</ele>
        <time>2012-07-24T07:53:35Z</time>
      </trkpt>
      <trkpt lat="47.29955" lon="4.99697">
        <ele>367.646</ele>
        <time>2012-07-24T07:53:46Z</time>
      </trkpt>
      <trkpt lat="47.29963" lon="4.99683">
        <ele>371.99</ele>
        <time>2012-07-24T07:53:57Z</time>
      </trkpt>
      <trkpt lat="47.29972" lon="4.99673">
        <ele>372.838</ele>
        <time>2012-07-24T07:54:08Z</time>
      </trkpt>
      <trkpt lat="47.29982" lon="4.99663">
        <ele>373.949</ele>
        <time>2012-07-24T07:54:19Z</time>
      </trkpt>
      <trkpt lat="47.29997" lon="4.9965">
        <ele>375.92</ele>
        <time>2012-07-24T07:54:30Z</time>
      </trkpt>
      <trkpt lat="47.30005" lon="4.99637">
        <ele>375.951</ele>
        <time>2012-07-24T07:54:41Z</time>
      </trkpt>
      <trkpt lat="47.30012" lon="4.99625">
        <ele>379.659</ele>
        <time>2012-07-24T07:54:52Z</time>
      </trkpt>
      <trkpt lat="47.30013" lon="4.99608">
        <ele>381.724</ele>
        <time>2012-07-24T07:55:03Z</time>
      </trkpt>
      <trkpt lat="47.30018" lon="4.99597">
        <ele>382.158</ele>
        <time>2012-07-24T07:55:14Z</time>
      </trkpt>
      <trkpt lat="47.30022" lon="4.99582">
        <ele>383.458</ele>
        <time>2012-07-24T07:55:25Z</time>
      </trkpt>
      <trkpt lat="47.30027" lon="4.99563">
        <ele>384.903</ele>
        <time>2012-07-24T07:55:36Z</time>
      </trkpt>
      <trkpt lat="47.30032" lon="4.99548">
        <ele>384.79</ele>
        <time>2012-07-24T07:55:47Z</time>
      </trkpt>
      <trkpt lat="47.30033" lon="4.99533">
        <ele>386.603</ele>
        <time>2012-07-24T07:55:58Z</time>
      </trkpt>
      <trkpt lat="47.3004" lon="4.99522">
        <ele>387.038</ele>
        <time>2012-07-24T07:56:09Z</time>
      </trkpt>
      <trkpt lat="47.30045" lon="4.99508">
        <ele>390.144</ele>
        <time>2012-07-24T07:56:20Z</time>
      </trkpt>
      <trkpt lat="47.30052" lon="4.99493">
        <ele>392.351</ele>
        <time>2012-07-24T07:56:31Z</time>
      </trkpt>
      <trkpt lat="47.30055" lon="4.99473">
        <ele>390.695</ele>
        <time>2012-07-24T07:56:42Z</time>
      </trkpt>
      <trkpt lat="47.3006" lon="4.99453">
        <ele>389.365</ele>
        <time>2012-07-24T07:56:53Z</time>
      </trkpt>
      <trkpt lat="47.30062" lon="4.99433">
        <ele>389.7</ele>
        <time>2012-07-24T07:57:04Z</time>
      </trkpt>
      <trkpt lat="47.30063" lon="4.99415">
        <ele>390.941</ele>
        <time>2012-07-24T07:57:15Z</time>
      </trkpt>
      <trkpt lat="47.30067" lon="4.99395">
        <ele>391.439</ele>
        <time>2012-07-24T07:57:26Z</time>
      </trkpt>
      <trkpt lat="47.30067" lon="4.99393">
        <ele>390.243</ele>
        <time>2012-07-24T07:57:37Z</time>
      </trkpt>
      <trkpt lat="47.30067" lon="4.99393">
        <ele>390.243</ele>
        <time>2012-07-24T07:57:48Z</time>
      </trkpt>
      <trkpt lat="47.30067" lon="4.99393">
        <ele>390.243</ele>
        <time>2012-07-24T07:57:59Z</time>
      </trkpt>
      <trkpt lat="47.30067" lon="4.9939">
        <ele>389.646</ele>
        <time>2012-07-24T07:58:10Z</time>
      </trkpt>
      <trkpt lat="47.30067" lon="4.9939">
        <ele>389.386</ele>
        <time>2012-07-24T07:58:21Z</time>
      </trkpt>
      <trkpt lat="47.30067" lon="4.9939">
        <ele>389.386</ele>
        <time>2012-07-24T07:58:32Z</time>
      </trkpt>
      <trkpt lat="47.30065" lon="4.99388">
        <ele>388.059</ele>
        <time>2012-07-24T07:58:43Z</time>
      </trkpt>
      <trkpt lat="47.30065" lon="4.99388">
        <ele>388.059</ele>
        <time>2012-07-24T07:58:54Z</time>
      </trkpt>
      <trkpt lat="47.30065" lon="4.99388">
        <ele>388.059</ele>
        <time>2012-07-24T07:59:05Z</time>
      </trkpt>
      <trkpt lat="47.30065" lon="4.99387">
        <ele>388.463</ele>
        <time>2012-07-24T07:59:16Z</time>
      </trkpt>
      <trkpt lat="47.30065" lon="4.99387">
        <ele>388.463</ele>
        <time>2012-07-24T07:59:27Z</time>
      </trkpt>
      <trkpt lat="47.30065" lon="4.99387">
        <ele>388.74</ele>
        <time>2012-07-24T07:59:38Z</time>
      </trkpt>
      <trkpt lat="47.30065" lon="4.99385">
        <ele>389.172</ele>
        <time>2012-07-24T07:59:49Z</time>
      </trkpt>
      <trkpt lat="47.30065" lon="4.99385">
        <ele>389.172</ele>
        <time>2012-07-24T08:00:00Z</time>
      </trkpt>
      <trkpt lat="47.30065" lon="4.99385">
        <ele>389.172</ele>
        <time>2012-07-24T08:00:11Z</time>
      </trkpt>
      <trkpt lat="47.30065" lon="4.99385">
        <ele>389.172</ele>
        <time>2012-07-24T08:00:22Z</time>
      </trkpt>
      <trkpt lat="47.30065" lon="4.99382">
        <ele>390.46</ele>
        <time>2012-07-24T08:00:33Z</time>
      </trkpt>
      <trkpt lat="47.30067" lon="4.99372">
        <ele>393.052</ele>
        <time>2012-07-24T08:00:44Z</time>
      </trkpt>
      <trkpt lat="47.30065" lon="4.99352">
        <ele>393.608</ele>
        <time>2012-07-24T08:00:55Z</time>
      </trkpt>
      <trkpt lat="47.30062" lon="4.99325">
        <ele>391.389</ele>
        <time>2012-07-24T08:01:06Z</time>
      </trkpt>
      <trkpt lat="47.3006" lon="4.99315">
        <ele>394.3</ele>
        <time>2012-07-24T08:01:17Z</time>
      </trkpt>
      <trkpt lat="47.30055" lon="4.99307">
        <ele>394.95</ele>
        <time>2012-07-24T08:01:28Z</time>
      </trkpt>
      <trkpt lat="47.30048" lon="4.99292">
        <ele>395.589</ele>
        <time>2012-07-24T08:01:39Z</time>
      </trkpt>
      <trkpt lat="47.30035" lon="4.99288">
        <ele>397.262</ele>
        <time>2012-07-24T08:01:50Z</time>
      </trkpt>
      <trkpt lat="47.3002" lon="4.9928">
        <ele>396.751</ele>
        <time>2012-07-24T08:02:01Z</time>
      </trkpt>
      <trkpt lat="47.3001" lon="4.99273">
        <ele>397.213</ele>
        <time>2012-07-24T08:02:12Z</time>
      </trkpt>
      <trkpt lat="47.2999" lon="4.99268">
        <ele>393.523</ele>
        <time>2012-07-24T08:02:23Z</time>
      </trkpt>
      <trkpt lat="47.29975" lon="4.99267">
        <ele>390.214</ele>
        <time>2012-07-24T08:02:34Z</time>
      </trkpt>
      <trkpt lat="47.29967" lon="4.99267">
        <ele>389.877</ele>
        <time>2012-07-24T08:02:45Z</time>
      </trkpt>
      <trkpt lat="47.29948" lon="4.99267">
        <ele>387.165</ele>
        <time>2012-07-24T08:02:56Z</time>
      </trkpt>
      <trkpt lat="47.2993" lon="4.99273">
        <ele>385.872</ele>
        <time>2012-07-24T08:03:07Z</time>
      </trkpt>
      <trkpt lat="47.29917" lon="4.99282">
        <ele>385.507</ele>
        <time>2012-07-24T08:03:18Z</time>
      </trkpt>
      <trkpt lat="47.29905" lon="4.99292">
        <ele>381.611</ele>
        <time>2012-07-24T08:03:29Z</time>
      </trkpt>
      <trkpt lat="47.29898" lon="4.99293">
        <ele>382.686</ele>
        <time>2012-07-24T08:03:40Z</time>
      </trkpt>
      <trkpt lat="47.29888" lon="4.99295">
        <ele>384.061</ele>
        <time>2012-07-24T08:03:51Z</time>
      </trkpt>
      <trkpt lat="47.29878" lon="4.9929">
        <ele>384.466</ele>
        <time>2012-07-24T08:04:02Z</time>
      </trkpt>
      <trkpt lat="47.29867" lon="4.9929">
        <ele>388.14</ele>
        <time>2012-07-24T08:04:13Z</time>
      </trkpt>
      <trkpt lat="47.29857" lon="4.99285">
        <ele>390.003</ele>
        <time>2012-07-24T08:04:24Z</time>
      </trkpt>
      <trkpt lat="47.29843" lon="4.99273">
        <ele>392.815</ele>
        <time>2012-07-24T08:04:35Z</time>
      </trkpt>
      <trkpt lat="47.29825" lon="4.99262">
        <ele>394.037</ele>
        <time>2012-07-24T08:04:46Z</time>
      </trkpt>
      <trkpt lat="47.29812" lon="4.9925">
        <ele>394.697</ele>
        <time>2012-07-24T08:04:57Z</time>
      </trkpt>
      <trkpt lat="47.29807" lon="4.99235">
        <ele>397.436</ele>
        <time>2012-07-24T08:05:08Z</time>
      </trkpt>
      <trkpt lat="47.29803" lon="4.99218">
        <ele>399.889</ele>
        <time>2012-07-24T08:05:19Z</time>
      </trkpt>
      <trkpt lat="47.29792" lon="4.99212">
        <ele>402.17</ele>
        <time>2012-07-24T08:05:30Z</time>
      </trkpt>
      <trkpt lat="47.29788" lon="4.99202">
        <ele>403.947</ele>
        <time>2012-07-24T08:05:41Z</time>
      </trkpt>
      <trkpt lat="47.29782" lon="4.99192">
        <ele>402.471</ele>
        <time>2012-07-24T08:05:52Z</time>
      </trkpt>
      <trkpt lat="47.2978" lon="4.99178">
        <ele>403.283</ele>
        <time>2012-07-24T08:06:03Z</time>
      </trkpt>
      <trkpt lat="47.29782" lon="4.99157">
        <ele>404.248</ele>
        <time>2012-07-24T08:06:14Z</time>
      </trkpt>
      <trkpt lat="47.2978" lon="4.99138">
        <ele>404.244</ele>
        <time>2012-07-24T08:06:25Z</time>
      </trkpt>
      <trkpt lat="47.29773" lon="4.99112">
        <ele>405.416</ele>
        <time>2012-07-24T08:06:36Z</time>
      </trkpt>
      <trkpt lat="47.29767" lon="4.99092">
        <ele>404.795</ele>
        <time>2012-07-24T08:06:47Z</time>
      </trkpt>
      <trkpt lat="47.29758" lon="4.99082">
        <ele>407.823</ele>
        <time>2012-07-24T08:06:58Z</time>
      </trkpt>
      <trkpt lat="47.29752" lon="4.99067">
        <ele>412.005</ele>
        <time>2012-07-24T08:07:09Z</time>
      </trkpt>
      <trkpt lat="47.2974" lon="4.99045">
        <ele>411.646</ele>
        <time>2012-07-24T08:07:20Z</time>
      </trkpt>
      <trkpt lat="47.29738" lon="4.99023">
        <ele>411.524</ele>
        <time>2012-07-24T08:07:31Z</time>
      </trkpt>
      <trkpt lat="47.29728" lon="4.99003">
        <ele>412.68</ele>
        <time>2012-07-24T08:07:42Z</time>
      </trkpt>
      <trkpt lat="47.2972" lon="4.98982">
        <ele>412.995</ele>
        <time>2012-07-24T08:07:53Z</time>
      </trkpt>
      <trkpt lat="47.29712" lon="4.98958">
        <ele>411.497</ele>
        <time>2012-07-24T08:08:04Z</time>
      </trkpt>
      <trkpt lat="47.29705" lon="4.98937">
        <ele>411.005</ele>
        <time>2012-07-24T08:08:15Z</time>
      </trkpt>
      <trkpt lat="47.297" lon="4.98917">
        <ele>410.503</ele>
        <time>2012-07-24T08:08:26Z</time>
      </trkpt>
      <trkpt lat="47.29695" lon="4.98897">
        <ele>410.453</ele>
        <time>2012-07-24T08:08:37Z</time>
      </trkpt>
      <trkpt lat="47.29687" lon="4.98877">
        <ele>409.275</ele>
        <time>2012-07-24T08:08:48Z</time>
      </trkpt>
      <trkpt lat="47.29678" lon="4.98857">
        <ele>406.994</ele>
        <time>2012-07-24T08:08:59Z</time>
      </trkpt>
      <trkpt lat="47.29672" lon="4.98837">
        <ele>405.653</ele>
        <time>2012-07-24T08:09:10Z</time>
      </trkpt>
      <trkpt lat="47.29665" lon="4.98817">
        <ele>403.39</ele>
        <time>2012-07-24T08:09:21Z</time>
      </trkpt>
      <trkpt lat="47.29658" lon="4.98797">
        <ele>402.603</ele>
        <time>2012-07-24T08:09:32Z</time>
      </trkpt>
      <trkpt lat="47.29652" lon="4.98778">
        <ele>402.108</ele>
        <time>2012-07-24T08:09:43Z</time>
      </trkpt>
      <trkpt lat="47.29647" lon="4.98757">
        <ele>401.423</ele>
        <time>2012-07-24T08:09:54Z</time>
      </trkpt>
      <trkpt lat="47.29642" lon="4.98738">
        <ele>400.622</ele>
        <time>2012-07-24T08:10:05Z</time>
      </trkpt>
      <trkpt lat="47.29643" lon="4.98727">
        <ele>399.004</ele>
        <time>2012-07-24T08:10:16Z</time>
      </trkpt>
      <trkpt lat="47.29642" lon="4.98705">
        <ele>398.019</ele>
        <time>2012-07-24T08:10:27Z</time>
      </trkpt>
      <trkpt lat="47.29643" lon="4.98687">
        <ele>399.106</ele>
        <time>2012-07-24T08:10:38Z</time>
      </trkpt>
      <trkpt lat="47.29647" lon="4.9867">
        <ele>399.37</ele>
        <time>2012-07-24T08:10:49Z</time>
      </trkpt>
      <trkpt lat="47.29653" lon="4.9865">
        <ele>398.309</ele>
        <time>2012-07-24T08:11:00Z</time>
      </trkpt>
      <trkpt lat="47.29658" lon="4.98633">
        <ele>397.78</ele>
        <time>2012-07-24T08:11:11Z</time>
      </trkpt>
      <trkpt lat="47.2966" lon="4.98627">
        <ele>398.805</ele>
        <time>2012-07-24T08:11:22Z</time>
      </trkpt>
      <trkpt lat="47.2966" lon="4.98627">
        <ele>398.805</ele>
        <time>2012-07-24T08:11:33Z</time>
      </trkpt>
      <trkpt lat="47.2966" lon="4.98627">
        <ele>398.805</ele>
        <time>2012-07-24T08:11:44Z</time>
      </trkpt>
      <trkpt lat="47.2966" lon="4.98627">
        <ele>398.805</ele>
        <time>2012-07-24T08:11:55Z</time>
      </trkpt>
      <trkpt lat="47.2966" lon="4.98627">
        <ele>398.805</ele>
        <time>2012-07-24T08:12:06Z</time>
      </trkpt>
      <trkpt lat="47.2966" lon="4.98627">
        <ele>398.805</ele>
        <time>2012-07-24T08:12:17Z</time>
      </trkpt>
      <trkpt lat="47.2966" lon="4.98627">
        <ele>398.805</ele>
        <time>2012-07-24T08:12:28Z</time>
      </trkpt>
      <trkpt lat="47.2966" lon="4.98622">
        <ele>398.376</ele>
        <time>2012-07-24T08:12:39Z</time>
      </trkpt>
      <trkpt lat="47.29667" lon="4.98602">
        <ele>398.315</ele>
        <time>2012-07-24T08:12:50Z</time>
      </trkpt>
      <trkpt lat="47.29673" lon="4.98585">
        <ele>397.694</ele>
        <time>2012-07-24T08:13:01Z</time>
      </trkpt>
      <trkpt lat="47.2968" lon="4.98565">
        <ele>397.733</ele>
        <time>2012-07-24T08:13:12Z</time>
      </trkpt>
      <trkpt lat="47.29688" lon="4.98545">
        <ele>397.595</ele>
        <time>2012-07-24T08:13:23Z</time>
      </trkpt>
      <trkpt lat="47.29695" lon="4.98523">
        <ele>397.383</ele>
        <time>2012-07-24T08:13:34Z</time>
      </trkpt>
      <trkpt lat="47.297" lon="4.98505">
        <ele>397.806</ele>
        <time>2012-07-24T08:13:45Z</time>
      </trkpt>
      <trkpt lat="47.29708" lon="4.98485">
        <ele>397.142</ele>
        <time>2012-07-24T08:13:56Z</time>
      </trkpt>
      <trkpt lat="47.29715" lon="4.9847">
        <ele>396.145</ele>
        <time>2012-07-24T08:14:07Z</time>
      </trkpt>
      <trkpt lat="47.29722" lon="4.98452">
        <ele>396.547</ele>
        <time>2012-07-24T08:14:18Z</time>
      </trkpt>
      <trkpt lat="47.29725" lon="4.98432">
        <ele>396.148</ele>
        <time>2012-07-24T08:14:29Z</time>
      </trkpt>
      <trkpt lat="47.29717" lon="4.9841">
        <ele>395.185</ele>
        <time>2012-07-24T08:14:40Z</time>
      </trkpt>
      <trkpt lat="47.29708" lon="4.98392">
        <ele>394.852</ele>
        <time>2012-07-24T08:14:51Z</time>
      </trkpt>
      <trkpt lat="47.29705" lon="4.98372">
        <ele>395.804</ele>
        <time>2012-07-24T08:15:02Z</time>
      </trkpt>
      <trkpt lat="47.29703" lon="4.98353">
        <ele>396.95</ele>
        <time>2012-07-24T08:15:13Z</time>
      </trkpt>
      <trkpt lat="47.29713" lon="4.98342">
        <ele>396.915</ele>
        <time>2012-07-24T08:15:24Z</time>
      </trkpt>
      <trkpt lat="47.29722" lon="4.98328">
        <ele>396.36</ele>
        <time>2012-07-24T08:15:35Z</time>
      </trkpt>
      <trkpt lat="47.29722" lon="4.9831">
        <ele>396.65</ele>
        <time>2012-07-24T08:15:46Z</time>
      </trkpt>
      <trkpt lat="47.29725" lon="4.98298">
        <ele>397.002</ele>
        <time>2012-07-24T08:15:57Z</time>
      </trkpt>
      <trkpt lat="47.2973" lon="4.9828">
        <ele>397.706</ele>
        <time>2012-07-24T08:16:08Z</time>
      </trkpt>
      <trkpt lat="47.29732" lon="4.98257">
        <ele>397.754</ele>
        <time>2012-07-24T08:16:19Z</time>
      </trkpt>
      <trkpt lat="47.29735" lon="4.98233">
        <ele>396.458</ele>
        <time>2012-07-24T08:16:30Z</time>
      </trkpt>
      <trkpt lat="47.29742" lon="4.98215">
        <ele>395.673</ele>
        <time>2012-07-24T08:16:41Z</time>
      </trkpt>
      <trkpt lat="47.29753" lon="4.98202">
        <ele>394.905</ele>
        <time>2012-07-24T08:16:52Z</time>
      </trkpt>
      <trkpt lat="47.29762" lon="4.9819">
        <ele>395.611</ele>
        <time>2012-07-24T08:17:03Z</time>
      </trkpt>
      <trkpt lat="47.2977" lon="4.98182">
        <ele>395.863</ele>
        <time>2012-07-24T08:17:14Z</time>
      </trkpt>
      <trkpt lat="47.2977" lon="4.9818">
        <ele>395.994</ele>
        <time>2012-07-24T08:17:25Z</time>
      </trkpt>
      <trkpt lat="47.29775" lon="4.98172">
        <ele>395.56</ele>
        <time>2012-07-24T08:17:36Z</time>
      </trkpt>
      <trkpt lat="47.2978" lon="4.98165">
        <ele>396.683</ele>
        <time>2012-07-24T08:17:47Z</time>
      </trkpt>
      <trkpt lat="47.29783" lon="4.98162">
        <ele>398.652</ele>
        <time>2012-07-24T08:17:58Z</time>
      </trkpt>
      <trkpt lat="47.29787" lon="4.98147">
        <ele>399.114</ele>
        <time>2012-07-24T08:18:09Z</time>
      </trkpt>
      <trkpt lat="47.29788" lon="4.98133">
        <ele>400.392</ele>
        <time>2012-07-24T08:18:20Z</time>
      </trkpt>
      <trkpt lat="47.29788" lon="4.98113">
        <ele>401.703</ele>
        <time>2012-07-24T08:18:31Z</time>
      </trkpt>
      <trkpt lat="47.2979" lon="4.98102">
        <ele>403.421</ele>
        <time>2012-07-24T08:18:42Z</time>
      </trkpt>
      <trkpt lat="47.29785" lon="4.98083">
        <ele>399.883</ele>
        <time>2012-07-24T08:18:53Z</time>
      </trkpt>
      <trkpt lat="47.29772" lon="4.98077">
        <ele>398.665</ele>
        <time>2012-07-24T08:19:04Z</time>
      </trkpt>
      <trkpt lat="47.2976" lon="4.98073">
        <ele>398.066</ele>
        <time>2012-07-24T08:19:15Z</time>
      </trkpt>
      <trkpt lat="47.29748" lon="4.98068">
        <ele>397.625</ele>
        <time>2012-07-24T08:19:26Z</time>
      </trkpt>
      <trkpt lat="47.29743" lon="4.98065">
        <ele>396.838</ele>
        <time>2012-07-24T08:19:37Z</time>
      </trkpt>
      <trkpt lat="47.29745" lon="4.98053">
        <ele>396.56</ele>
        <time>2012-07-24T08:19:48Z</time>
      </trkpt>
      <trkpt lat="47.29747" lon="4.98038">
        <ele>396.847</ele>
        <time>2012-07-24T08:19:59Z</time>
      </trkpt>
      <trkpt lat="47.29747" lon="4.98028">
        <ele>396.043</ele>
        <time>2012-07-24T08:20:10Z</time>
      </trkpt>
      <trkpt lat="47.29747" lon="4.98015">
        <ele>397.633</ele>
        <time>2012-07-24T08:20:21Z</time>
      </trkpt>
      <trkpt lat="47.29745" lon="4.98003">
        <ele>398.466</ele>
        <time>2012-07-24T08:20:32Z</time>
      </trkpt>
      <trkpt lat="47.29745" lon="4.98002">
        <ele>398.739</ele>
        <time>2012-07-24T08:20:43Z</time>
      </trkpt>
      <trkpt lat="47.29747" lon="4.98">
        <ele>399.461</ele>
        <time>2012-07-24T08:20:54Z</time>
      </trkpt>
      <trkpt lat="47.29748" lon="4.97998">
        <ele>398.68</ele>
        <time>2012-07-24T08:21:05Z</time>
      </trkpt>
      <trkpt lat="47.29748" lon="4.97998">
        <ele>398.68</ele>
        <time>2012-07-24T08:21:16Z</time>
      </trkpt>
      <trkpt lat="47.29748" lon="4.97998">
        <ele>398.68</ele>
        <time>2012-07-24T08:21:27Z</time>
      </trkpt>
      <trkpt lat="47.29748" lon="4.97997">
        <ele>398.725</ele>
        <time>2012-07-24T08:21:38Z</time>
      </trkpt>
      <trkpt lat="47.29747" lon="4.9799">
        <ele>399.624</ele>
        <time>2012-07-24T08:21:49Z</time>
      </trkpt>
      <trkpt lat="47.29747" lon="4.9797">
        <ele>401.858</ele>
        <time>2012-07-24T08:22:00Z</time>
      </trkpt>
      <trkpt lat="47.29748" lon="4.97957">
        <ele>402.858</ele>
        <time>2012-07-24T08:22:11Z</time>
      </trkpt>
      <trkpt lat="47.29757" lon="4.97942">
        <ele>403.652</ele>
        <time>2012-07-24T08:22:22Z</time>
      </trkpt>
      <trkpt lat="47.29762" lon="4.97923">
        <ele>403.2</ele>
        <time>2012-07-24T08:22:33Z</time>
      </trkpt>
      <trkpt lat="47.29765" lon="4.97903">
        <ele>401.934</ele>
        <time>2012-07-24T08:22:44Z</time>
      </trkpt>
      <trkpt lat="47.29763" lon="4.9788">
        <ele>398.365</ele>
        <time>2012-07-24T08:22:55Z</time>
      </trkpt>
      <trkpt lat="47.2976" lon="4.97862">
        <ele>397.344</ele>
        <time>2012-07-24T08:23:06Z</time>
      </trkpt>
      <trkpt lat="47.29762" lon="4.97847">
        <ele>397.95</ele>
        <time>2012-07-24T08:23:17Z</time>
      </trkpt>
      <trkpt lat="47.29765" lon="4.9783">
        <ele>399.077</ele>
        <time>2012-07-24T08:23:28Z</time>
      </trkpt>
      <trkpt lat="47.2977" lon="4.97813">
        <ele>399.926</ele>
        <time>2012-07-24T08:23:39Z</time>
      </trkpt>
      <trkpt lat="47.29777" lon="4.978">
        <ele>399.195</ele>
        <time>2012-07-24T08:23:50Z</time>
      </trkpt>
      <trkpt lat="47.29783" lon="4.97788">
        <ele>398.939</ele>
        <time>2012-07-24T08:24:01Z</time>
      </trkpt>
      <trkpt lat="47.2979" lon="4.97775">
        <ele>399.608</ele>
        <time>2012-07-24T08:24:12Z</time>
      </trkpt>
      <trkpt lat="47.29797" lon="4.97758">
        <ele>400.327</ele>
        <time>2012-07-24T08:24:23Z</time>
      </trkpt>
      <trkpt lat="47.29803" lon="4.97737">
        <ele>400.303</ele>
        <time>2012-07-24T08:24:34Z</time>
      </trkpt>
      <trkpt lat="47.29807" lon="4.97715">
        <ele>401.696</ele>
        <time>2012-07-24T08:24:45Z</time>
      </trkpt>
      <trkpt lat="47.2981" lon="4.97693">
        <ele>399.692</ele>
        <time>2012-07-24T08:24:56Z</time>
      </trkpt>
      <trkpt lat="47.29813" lon="4.97675">
        <ele>398.645</ele>
        <time>2012-07-24T08:25:07Z</time>
      </trkpt>
      <trkpt lat="47.29815" lon="4.97662">
        <ele>398.843</ele>
        <time>2012-07-24T08:25:18Z</time>
      </trkpt>
      <trkpt lat="47.29822" lon="4.97652">
        <ele>398.036</ele>
        <time>2012-07-24T08:25:29Z</time>
      </trkpt>
      <trkpt lat="47.29832" lon="4.9764">
        <ele>398.385</ele>
        <time>2012-07-24T08:25:40Z</time>
      </trkpt>
      <trkpt lat="47.29842" lon="4.97628">
        <ele>398.566</ele>
        <time>2012-07-24T08:25:51Z</time>
      </trkpt>
      <trkpt lat="47.29842" lon="4.97605">
        <ele>397.861</ele>
        <time>2012-07-24T08:26:02Z</time>
      </trkpt>
      <trkpt lat="47.29842" lon="4.97582">
        <ele>396.83</ele>
        <time>2012-07-24T08:26:13Z</time>
      </trkpt>
      <trkpt lat="47.29842" lon="4.97557">
        <ele>395.817</ele>
        <time>2012-07-24T08:26:24Z</time>
      </trkpt>
      <trkpt lat="47.2984" lon="4.97533">
        <ele>395.235</ele>
        <time>2012-07-24T08:26:35Z</time>
      </trkpt>
      <trkpt lat="47.29838" lon="4.97512">
        <ele>395.306</ele>
        <time>2012-07-24T08:26:46Z</time>
      </trkpt>
      <trkpt lat="47.29837" lon="4.9749">
        <ele>394.68</ele>
        <time>2012-07-24T08:26:57Z</time>
      </trkpt>
      <trkpt lat="47.29837" lon="4.97475">
        <ele>394.156</ele>
        <time>2012-07-24T08:27:08Z</time>
      </trkpt>
      <trkpt lat="47.29835" lon="4.97455">
        <ele>393.73</ele>
        <time>2012-07-24T08:27:19Z</time>
      </trkpt>
      <trkpt lat="47.29833" lon="4.97435">
        <ele>392.105</ele>
        <time>2012-07-24T08:27:30Z</time>
      </trkpt>
      <trkpt lat="47.29832" lon="4.9742">
        <ele>392.765</ele>
        <time>2012-07-24T08:27:41Z</time>
      </trkpt>
      <trkpt lat="47.29827" lon="4.97405">
        <ele>393.167</ele>
        <time>2012-07-24T08:27:52Z</time>
      </trkpt>
      <trkpt lat="47.2983" lon="4.97383">
        <ele>394.294</ele>
        <time>2012-07-24T08:28:03Z</time>
      </trkpt>
      <trkpt lat="47.29832" lon="4.97368">
        <ele>395.044</ele>
        <time>2012-07-24T08:28:14Z</time>
      </trkpt>
      <trkpt lat="47.29832" lon="4.9735">
        <ele>396.444</ele>
        <time>2012-07-24T08:28:25Z</time>
      </trkpt>
      <trkpt lat="47.29835" lon="4.9733">
        <ele>397.314</ele>
        <time>2012-07-24T08:28:36Z</time>
      </trkpt>
      <trkpt lat="47.29837" lon="4.97312">
        <ele>398.886</ele>
        <time>2012-07-24T08:28:47Z</time>
      </trkpt>
      <trkpt lat="47.29838" lon="4.97292">
        <ele>399.085</ele>
        <time>2012-07-24T08:28:58Z</time>
      </trkpt>
      <trkpt lat="47.2984" lon="4.9727">
        <ele>398.306</ele>
        <time>2012-07-24T08:29:09Z</time>
      </trkpt>
      <trkpt lat="47.2984" lon="4.97247">
        <ele>399.122</ele>
        <time>2012-07-24T08:29:20Z</time>
      </trkpt>
      <trkpt lat="47.2984" lon="4.97227">
        <ele>398.508</ele>
        <time>2012-07-24T08:29:31Z</time>
      </trkpt>
      <trkpt lat="47.2984" lon="4.97217">
        <ele>399.147</ele>
        <time>2012-07-24T08:29:42Z</time>
      </trkpt>
      <trkpt lat="47.2984" lon="4.9719">
        <ele>398.069</ele>
        <time>2012-07-24T08:29:53Z</time>
      </trkpt>
      <trkpt lat="47.29842" lon="4.97167">
        <ele>398.788</ele>
        <time>2012-07-24T08:30:04Z</time>
      </trkpt>
      <trkpt lat="47.29842" lon="4.97143">
        <ele>400.407</ele>
        <time>2012-07-24T08:30:15Z</time>
      </trkpt>
      <trkpt lat="47.29838" lon="4.97118">
        <ele>398.796</ele>
        <time>2012-07-24T08:30:26Z</time>
      </trkpt>
      <trkpt lat="47.29837" lon="4.97103">
        <ele>399.462</ele>
        <time>2012-07-24T08:30:37Z</time>
      </trkpt>
      <trkpt lat="47.29833" lon="4.9708">
        <ele>397.955</ele>
        <time>2012-07-24T08:30:48Z</time>
      </trkpt>
      <trkpt lat="47.29833" lon="4.97055">
        <ele>397.178</ele>
        <time>2012-07-24T08:30:59Z</time>
      </trkpt>
      <trkpt lat="47.29835" lon="4.97038">
        <ele>397.975</ele>
        <time>2012-07-24T08:31:10Z</time>
      </trkpt>
      <trkpt lat="47.29837" lon="4.97025">
        <ele>400.322</ele>
        <time>2012-07-24T08:31:21Z</time>
      </trkpt>
      <trkpt lat="47.2984" lon="4.97005">
        <ele>401.329</ele>
        <time>2012-07-24T08:31:32Z</time>
      </trkpt>
      <trkpt lat="47.29842" lon="4.96987">
        <ele>402.084</ele>
        <time>2012-07-24T08:31:43Z</time>
      </trkpt>
      <trkpt lat="47.29842" lon="4.96967">
        <ele>401.572</ele>
        <time>2012-07-24T08:31:54Z</time>
      </trkpt>
      <trkpt lat="47.29845" lon="4.96945">
        <ele>401.785</ele>
        <time>2012-07-24T08:32:05Z</time>
      </trkpt>
      <trkpt lat="47.29848" lon="4.9693">
        <ele>401.43</ele>
        <time>2012-07-24T08:32:16Z</time>
      </trkpt>
      <trkpt lat="47.29853" lon="4.96917">
        <ele>403.648</ele>
        <time>2012-07-24T08:32:27Z</time>
      </trkpt>
      <trkpt lat="47.29858" lon="4.96897">
        <ele>404.761</ele>
        <time>2012-07-24T08:32:38Z</time>
      </trkpt>
      <trkpt lat="47.29863" lon="4.9688">
        <ele>405.393</ele>
        <time>2012-07-24T08:32:49Z</time>
      </trkpt>
      <trkpt lat="47.2987" lon="4.9686">
        <ele>406.053</ele>
        <time>2012-07-24T08:33:00Z</time>
      </trkpt>
      <trkpt lat="47.29877" lon="4.96843">
        <ele>405.988</ele>
        <time>2012-07-24T08:33:11Z</time>
      </trkpt>
      <trkpt lat="47.29882" lon="4.96822">
        <ele>404.429</ele>
        <time>2012-07-24T08:33:22Z</time>
      </trkpt>
      <trkpt lat="47.29893" lon="4.96797">
        <ele>404.401</ele>
        <time>2012-07-24T08:33:33Z</time>
      </trkpt>
      <trkpt lat="47.29903" lon="4.96775">
        <ele>403.403</ele>
        <time>2012-07-24T08:33:44Z</time>
      </trkpt>
      <trkpt lat="47.29912" lon="4.96755">
        <ele>403.513</ele>
        <time>2012-07-24T08:33:55Z</time>
      </trkpt>
      <trkpt lat="47.29922" lon="4.96735">
        <ele>402.442</ele>
        <time>2012-07-24T08:34:06Z</time>
      </trkpt>
      <trkpt lat="47.2993" lon="4.9672">
        <ele>402.411</ele>
        <time>2012-07-24T08:34:17Z</time>
      </trkpt>
      <trkpt lat="47.2994" lon="4.96705">
        <ele>402.227</ele>
        <time>2012-07-24T08:34:28Z</time>
      </trkpt>
      <trkpt lat="47.29948" lon="4.96687">
        <ele>403.656</ele>
        <time>2012-07-24T08:34:39Z</time>
      </trkpt>
      <trkpt lat="47.29953" lon="4.9667">
        <ele>405.018</ele>
        <time>2012-07-24T08:34:50Z</time>
      </trkpt>
      <trkpt lat="47.29957" lon="4.96657">
        <ele>406.392</ele>
        <time>2012-07-24T08:35:01Z</time>
      </trkpt>
      <trkpt lat="47.29958" lon="4.96645">
        <ele>406.286</ele>
        <time>2012-07-24T08:35:12Z</time>
      </trkpt>
      <trkpt lat="47.29962" lon="4.96632">
        <ele>406.278</ele>
        <time>2012-07-24T08:35:23Z</time>
      </trkpt>
      <trkpt lat="47.29963" lon="4.96615">
        <ele>407.754</ele>
        <time>2012-07-24T08:35:34Z</time>
      </trkpt>
      <trkpt lat="47.2997" lon="4.96612">
        <ele>412.125</ele>
        <time>2012-07-24T08:35:45Z</time>
      </trkpt>
      <trkpt lat="47.29972" lon="4.96612">
        <ele>414.845</ele>
        <time>2012-07-24T08:35:56Z</time>
      </trkpt>
      <trkpt lat="47.29977" lon="4.96608">
        <ele>417.832</ele>
        <time>2012-07-24T08:36:07Z</time>
      </trkpt>
      <trkpt lat="47.29987" lon="4.96605">
        <ele>420.049</ele>
        <time>2012-07-24T08:36:18Z</time>
      </trkpt>
      <trkpt lat="47.29993" lon="4.96603">
        <ele>422.782</ele>
        <time>2012-07-24T08:36:29Z</time>
      </trkpt>
      <trkpt lat="47.30002" lon="4.96602">
        <ele>426.231</ele>
        <time>2012-07-24T08:36:40Z</time>
      </trkpt>
      <trkpt lat="47.30012" lon="4.96597">
        <ele>428.91</ele>
        <time>2012-07-24T08:36:51Z</time>
      </trkpt>
      <trkpt lat="47.3002" lon="4.96595">
        <ele>430.389</ele>
        <time>2012-07-24T08:37:02Z</time>
      </trkpt>
      <trkpt lat="47.30028" lon="4.96593">
        <ele>431.064</ele>
        <time>2012-07-24T08:37:13Z</time>
      </trkpt>
      <trkpt lat="47.30037" lon="4.96588">
        <ele>431.886</ele>
        <time>2012-07-24T08:37:24Z</time>
      </trkpt>
      <trkpt lat="47.30047" lon="4.96585">
        <ele>433.436</ele>
        <time>2012-07-24T08:37:35Z</time>
      </trkpt>
      <trkpt lat="47.30057" lon="4.96567">
        <ele>434.399</ele>
        <time>2012-07-24T08:37:46Z</time>
      </trkpt>
      <trkpt lat="47.30062" lon="4.96545">
        <ele>435.934</ele>
        <time>2012-07-24T08:37:57Z</time>
      </trkpt>
      <trkpt lat="47.3007" lon="4.96528">
        <ele>438.024</ele>
        <time>2012-07-24T08:38:08Z</time>
      </trkpt>
      <trkpt lat="47.30073" lon="4.96503">
        <ele>438.777</ele>
        <time>2012-07-24T08:38:19Z</time>
      </trkpt>
      <trkpt lat="47.30077" lon="4.96478">
        <ele>439.07</ele>
        <time>2012-07-24T08:38:30Z</time>
      </trkpt>
      <trkpt lat="47.30078" lon="4.9646">
        <ele>440.663</ele>
        <time>2012-07-24T08:38:41Z</time>
      </trkpt>
      <trkpt lat="47.30077" lon="4.9644">
        <ele>441.732</ele>
        <time>2012-07-24T08:38:52Z</time>
      </trkpt>
      <trkpt lat="47.30078" lon="4.96423">
        <ele>441.366</ele>
        <time>2012-07-24T08:39:03Z</time>
      </trkpt>
      <trkpt lat="47.30072" lon="4.96403">
        <ele>441.081</ele>
        <time>2012-07-24T08:39:14Z</time>
      </trkpt>
      <trkpt lat="47.30068" lon="4.96382">
        <ele>442.228</ele>
        <time>2012-07-24T08:39:25Z</time>
      </trkpt>
      <trkpt lat="47.30063" lon="4.96358">
        <ele>443.717</ele>
        <time>2012-07-24T08:39:36Z</time>
      </trkpt>
      <trkpt lat="47.30057" lon="4.9634">
        <ele>443.52</ele>
        <time>2012-07-24T08:39:47Z</time>
      </trkpt>
      <trkpt lat="47.3005" lon="4.96318">
        <ele>444.373</ele>
        <time>2012-07-24T08:39:58Z</time>
      </trkpt>
      <trkpt lat="47.30043" lon="4.96297">
        <ele>444.269</ele>
        <time>2012-07-24T08:40:09Z</time>
      </trkpt>
      <trkpt lat="47.30035" lon="4.96292">
        <ele>444.635</ele>
        <time>2012-07-24T08:40:20Z</time>
      </trkpt>
      <trkpt lat="47.3003" lon="4.96295">
        <ele>445.572</ele>
        <time>2012-07-24T08:40:31Z</time>
      </trkpt>
      <trkpt lat="47.30032" lon="4.96282">
        <ele>447.962</ele>
        <time>2012-07-24T08:40:42Z</time>
      </trkpt>
      <trkpt lat="47.30035" lon="4.96265">
        <ele>446.568</ele>
        <time>2012-07-24T08:40:53Z</time>
      </trkpt>
      <trkpt lat="47.30032" lon="4.96242">
        <ele>445.711</ele>
        <time>2012-07-24T08:41:04Z</time>
      </trkpt>
      <trkpt lat="47.30027" lon="4.96215">
        <ele>443.732</ele>
        <time>2012-07-24T08:41:15Z</time>
      </trkpt>
      <trkpt lat="47.30018" lon="4.96192">
        <ele>441.823</ele>
        <time>2012-07-24T08:41:26Z</time>
      </trkpt>
      <trkpt lat="47.30002" lon="4.96188">
        <ele>439.907</ele>
        <time>2012-07-24T08:41:37Z</time>
      </trkpt>
      <trkpt lat="47.2999" lon="4.96195">
        <ele>437.8</ele>
        <time>2012-07-24T08:41:48Z</time>
      </trkpt>
      <trkpt lat="47.29992" lon="4.96195">
        <ele>436.657</ele>
        <time>2012-07-24T08:41:59Z</time>
      </trkpt>
      <trkpt lat="47.29997" lon="4.96188">
        <ele>435.285</ele>
        <time>2012-07-24T08:42:10Z</time>
      </trkpt>
      <trkpt lat="47.29987" lon="4.96193">
        <ele>434.737</ele>
        <time>2012-07-24T08:42:21Z</time>
      </trkpt>
      <trkpt lat="47.29978" lon="4.96185">
        <ele>433.457</ele>
        <time>2012-07-24T08:42:32Z</time>
      </trkpt>
      <trkpt lat="47.29975" lon="4.96175">
        <ele>434.1</ele>
        <time>2012-07-24T08:42:43Z</time>
      </trkpt>
      <trkpt lat="47.29965" lon="4.96157">
        <ele>434.74</ele>
        <time>2012-07-24T08:42:54Z</time>
      </trkpt>
      <trkpt lat="47.29963" lon="4.96143">
        <ele>436.281</ele>
        <time>2012-07-24T08:43:05Z</time>
      </trkpt>
      <trkpt lat="47.29953" lon="4.96128">
        <ele>432.92</ele>
        <time>2012-07-24T08:43:16Z</time>
      </trkpt>
      <trkpt lat="47.29952" lon="4.96118">
        <ele>432.335</ele>
        <time>2012-07-24T08:43:27Z</time>
      </trkpt>
      <trkpt lat="47.2994" lon="4.96102">
        <ele>432.185</ele>
        <time>2012-07-24T08:43:38Z</time>
      </trkpt>
      <trkpt lat="47.29933" lon="4.96087">
        <ele>431.865</ele>
        <time>2012-07-24T08:43:49Z</time>
      </trkpt>
      <trkpt lat="47.29928" lon="4.96078">
        <ele>432.444</ele>
        <time>2012-07-24T08:44:00Z</time>
      </trkpt>
      <trkpt lat="47.29918" lon="4.9606">
        <ele>432.181</ele>
        <time>2012-07-24T08:44:11Z</time>
      </trkpt>
      <trkpt lat="47.2991" lon="4.96042">
        <ele>433.406</ele>
        <time>2012-07-24T08:44:22Z</time>
      </trkpt>
      <trkpt lat="47.29902" lon="4.96025">
        <ele>433.202</ele>
        <time>2012-07-24T08:44:33Z</time>
      </trkpt>
      <trkpt lat="47.29892" lon="4.96008">
        <ele>433.342</ele>
        <time>2012-07-24T08:44:44Z</time>
      </trkpt>
      <trkpt lat="47.29878" lon="4.95988">
        <ele>430.702</ele>
        <time>2012-07-24T08:44:55Z</time>
      </trkpt>
      <trkpt lat="47.29872" lon="4.95972">
        <ele>429.508</ele>
        <time>2012-07-24T08:45:06Z</time>
      </trkpt>
      <trkpt lat="47.29862" lon="4.95953">
        <ele>428.593</ele>
        <time>2012-07-24T08:45:17Z</time>
      </trkpt>
      <trkpt lat="47.29852" lon="4.95937">
        <ele>428.672</ele>
        <time>2012-07-24T08:45:28Z</time>
      </trkpt>
      <trkpt lat="47.29847" lon="4.95923">
        <ele>429.279</ele>
        <time>2012-07-24T08:45:39Z</time>
      </trkpt>
      <trkpt lat="47.2984" lon="4.95908">
        <ele>429.2</ele>
        <time>2012-07-24T08:45:50Z</time>
      </trkpt>
      <trkpt lat="47.29828" lon="4.95885">
        <ele>428.524</ele>
        <time>2012-07-24T08:46:01Z</time>
      </trkpt>
      <trkpt lat="47.29823" lon="4.95873">
        <ele>430.482</ele>
        <time>2012-07-24T08:46:12Z</time>
      </trkpt>
      <trkpt lat="47.29815" lon="4.95857">
        <ele>431.077</ele>
        <time>2012-07-24T08:46:23Z</time>
      </trkpt>
      <trkpt lat="47.29808" lon="4.95842">
        <ele>431.94</ele>
        <time>2012-07-24T08:46:34Z</time>
      </trkpt>
      <trkpt lat="47.29802" lon="4.95828">
        <ele>431.135</ele>
        <time>2012-07-24T08:46:45Z</time>
      </trkpt>
      <trkpt lat="47.29795" lon="4.9581">
        <ele>430.951</ele>
        <time>2012-07-24T08:46:56Z</time>
      </trkpt>
      <trkpt lat="47.29783" lon="4.9579">
        <ele>431.549</ele>
        <time>2012-07-24T08:47:07Z</time>
      </trkpt>
      <trkpt lat="47.29775" lon="4.95772">
        <ele>431.659</ele>
        <time>2012-07-24T08:47:18Z</time>
      </trkpt>
      <trkpt lat="47.29763" lon="4.95753">
        <ele>431.53</ele>
        <time>2012-07-24T08:47:29Z</time>
      </trkpt>
      <trkpt lat="47.29753" lon="4.95737">
        <ele>433.127</ele>
        <time>2012-07-24T08:47:40Z</time>
      </trkpt>
      <trkpt lat="47.29747" lon="4.95722">
        <ele>434.511</ele>
        <time>2012-07-24T08:47:51Z</time>
      </trkpt>
      <trkpt lat="47.29737" lon="4.95703">
        <ele>434.852</ele>
        <time>2012-07-24T08:48:02Z</time>
      </trkpt>
      <trkpt lat="47.29728" lon="4.95687">
        <ele>436.107</ele>
        <time>2012-07-24T08:48:13Z</time>
      </trkpt>
      <trkpt lat="47.29718" lon="4.95667">
        <ele>436.074</ele>
        <time>2012-07-24T08:48:24Z</time>
      </trkpt>
      <trkpt lat="47.2971" lon="4.9565">
        <ele>437.412</ele>
        <time>2012-07-24T08:48:35Z</time>
      </trkpt>
      <trkpt lat="47.29703" lon="4.95638">
        <ele>437.207</ele>
        <time>2012-07-24T08:48:46Z</time>
      </trkpt>
      <trkpt lat="47.29693" lon="4.95618">
        <ele>438.306</ele>
        <time>2012-07-24T08:48:57Z</time>
      </trkpt>
      <trkpt lat="47.29683" lon="4.956">
        <ele>438.785</ele>
        <time>2012-07-24T08:49:08Z</time>
      </trkpt>
      <trkpt lat="47.2967" lon="4.95583">
        <ele>440.014</ele>
        <time>2012-07-24T08:49:19Z</time>
      </trkpt>
      <trkpt lat="47.29662" lon="4.9557">
        <ele>439.627</ele>
        <time>2012-07-24T08:49:30Z</time>
      </trkpt>
      <trkpt lat="47.29653" lon="4.95553">
        <ele>439.115</ele>
        <time>2012-07-24T08:49:41Z</time>
      </trkpt>
      <trkpt lat="47.2964" lon="4.95535">
        <ele>435.906</ele>
        <time>2012-07-24T08:49:52Z</time>
      </trkpt>
      <trkpt lat="47.29632" lon="4.95518">
        <ele>436.008</ele>
        <time>2012-07-24T08:50:03Z</time>
      </trkpt>
      <trkpt lat="47.2962" lon="4.95502">
        <ele>436.888</ele>
        <time>2012-07-24T08:50:14Z</time>
      </trkpt>
      <trkpt lat="47.29607" lon="4.95485">
        <ele>436.113</ele>
        <time>2012-07-24T08:50:25Z</time>
      </trkpt>
      <trkpt lat="47.29597" lon="4.95468">
        <ele>436.963</ele>
        <time>2012-07-24T08:50:36Z</time>
      </trkpt>
      <trkpt lat="47.29585" lon="4.95453">
        <ele>437.511</ele>
        <time>2012-07-24T08:50:47Z</time>
      </trkpt>
      <trkpt lat="47.29575" lon="4.95438">
        <ele>437.466</ele>
        <time>2012-07-24T08:50:58Z</time>
      </trkpt>
      <trkpt lat="47.29563" lon="4.95423">
        <ele>436.761</ele>
        <time>2012-07-24T08:51:09Z</time>
      </trkpt>
      <trkpt lat="47.29553" lon="4.95412">
        <ele>436.278</ele>
        <time>2012-07-24T08:51:20Z</time>
      </trkpt>
      <trkpt lat="47.2954" lon="4.95397">
        <ele>435.822</ele>
        <time>2012-07-24T08:51:31Z</time>
      </trkpt>
      <trkpt lat="47.29532" lon="4.95387">
        <ele>435.92</ele>
        <time>2012-07-24T08:51:42Z</time>
      </trkpt>
      <trkpt lat="47.29525" lon="4.95377">
        <ele>436.372</ele>
        <time>2012-07-24T08:51:53Z</time>
      </trkpt>
      <trkpt lat="47.2951" lon="4.95362">
        <ele>436.374</ele>
        <time>2012-07-24T08:52:04Z</time>
      </trkpt>
      <trkpt lat="47.29502" lon="4.95347">
        <ele>438.214</ele>
        <time>2012-07-24T08:52:15Z</time>
      </trkpt>
      <trkpt lat="47.29488" lon="4.95332">
        <ele>437.679</ele>
        <time>2012-07-24T08:52:26Z</time>
      </trkpt>
      <trkpt lat="47.29478" lon="4.95317">
        <ele>437.826</ele>
        <time>2012-07-24T08:52:37Z</time>
      </trkpt>
      <trkpt lat="47.29463" lon="4.95302">
        <ele>435.753</ele>
        <time>2012-07-24T08:52:48Z</time>
      </trkpt>
      <trkpt lat="47.29452" lon="4.95285">
        <ele>434.759</ele>
        <time>2012-07-24T08:52:59Z</time>
      </trkpt>
      <trkpt lat="47.2944" lon="4.9527">
        <ele>432.315</ele>
        <time>2012-07-24T08:53:10Z</time>
      </trkpt>
      <trkpt lat="47.2943" lon="4.95255">
        <ele>430.447</ele>
        <time>2012-07-24T08:53:21Z</time>
      </trkpt>
      <trkpt lat="47.29418" lon="4.9524">
        <ele>430.805</ele>
        <time>2012-07-24T08:53:32Z</time>
      </trkpt>
      <trkpt lat="47.29408" lon="4.95225">
        <ele>430.025</ele>
        <time>2012-07-24T08:53:43Z</time>
      </trkpt>
      <trkpt lat="47.29398" lon="4.95207">
        <ele>429.826</ele>
        <time>2012-07-24T08:53:54Z</time>
      </trkpt>
      <trkpt lat="47.29387" lon="4.95192">
        <ele>428.52</ele>
        <time>2012-07-24T08:54:05Z</time>
      </trkpt>
      <trkpt lat="47.29375" lon="4.95177">
        <ele>427.21</ele>
        <time>2012-07-24T08:54:16Z</time>
      </trkpt>
      <trkpt lat="47.29365" lon="4.95162">
        <ele>425.571</ele>
        <time>2012-07-24T08:54:27Z</time>
      </trkpt>
      <trkpt lat="47.29353" lon="4.95147">
        <ele>424.939</ele>
        <time>2012-07-24T08:54:38Z</time>
      </trkpt>
      <trkpt lat="47.29343" lon="4.95132">
        <ele>423.61</ele>
        <time>2012-07-24T08:54:49Z</time>
      </trkpt>
      <trkpt lat="47.29333" lon="4.95117">
        <ele>424.272</ele>
        <time>2012-07-24T08:55:00Z</time>
      </trkpt>
      <trkpt lat="47.29325" lon="4.95102">
        <ele>424.472</ele>
        <time>2012-07-24T08:55:11Z</time>
      </trkpt>
      <trkpt lat="47.29315" lon="4.95087">
        <ele>424.66</ele>
        <time>2012-07-24T08:55:22Z</time>
      </trkpt>
      <trkpt lat="47.29303" lon="4.9507">
        <ele>424.247</ele>
        <time>2012-07-24T08:55:33Z</time>
      </trkpt>
      <trkpt lat="47.29298" lon="4.95057">
        <ele>426.011</ele>
        <time>2012-07-24T08:55:44Z</time>
      </trkpt>
      <trkpt lat="47.29288" lon="4.95042">
        <ele>426.482</ele>
        <time>2012-07-24T08:55:55Z</time>
      </trkpt>
      <trkpt lat="47.29277" lon="4.95027">
        <ele>426.227</ele>
        <time>2012-07-24T08:56:06Z</time>
      </trkpt>
      <trkpt lat="47.29265" lon="4.95008">
        <ele>426.009</ele>
        <time>2012-07-24T08:56:17Z</time>
      </trkpt>
      <trkpt lat="47.29253" lon="4.94993">
        <ele>425.521</ele>
        <time>2012-07-24T08:56:28Z</time>
      </trkpt>
      <trkpt lat="47.29243" lon="4.94977">
        <ele>425.418</ele>
        <time>2012-07-24T08:56:39Z</time>
      </trkpt>
      <trkpt lat="47.29232" lon="4.94962">
        <ele>425.652</ele>
        <time>2012-07-24T08:56:50Z</time>
      </trkpt>
      <trkpt lat="47.29222" lon="4.94948">
        <ele>425.363</ele>
        <time>2012-07-24T08:57:01Z</time>
      </trkpt>
      <trkpt lat="47.29212" lon="4.94935">
        <ele>425.825</ele>
        <time>2012-07-24T08:57:12Z</time>
      </trkpt>
      <trkpt lat="47.29203" lon="4.94923">
        <ele>425.825</ele>
        <time>2012-07-24T08:57:23Z</time>
      </trkpt>
      <trkpt lat="47.29202" lon="4.9492">
        <ele>425.835</ele>
        <time>2012-07-24T08:57:34Z</time>
      </trkpt>
      <trkpt lat="47.292" lon="4.9492">
        <ele>425.775</ele>
        <time>2012-07-24T08:57:45Z</time>
      </trkpt>
      <trkpt lat="47.292" lon="4.9492">
        <ele>425.775</ele>
        <time>2012-07-24T08:57:56Z</time>
      </trkpt>
      <trkpt lat="47.292" lon="4.9492">
        <ele>425.741</ele>
        <time>2012-07-24T08:58:07Z</time>
      </trkpt>
      <trkpt lat="47.292" lon="4.9492">
        <ele>425.741</ele>
        <time>2012-07-24T08:58:18Z</time>
      </trkpt>
      <trkpt lat="47.29202" lon="4.9492">
        <ele>425.687</ele>
        <time>2012-07-24T08:58:29Z</time>
      </trkpt>
      <trkpt lat="47.29195" lon="4.94923">
        <ele>425.321</ele>
        <time>2012-07-24T08:58:40Z</time>
      </trkpt>
      <trkpt lat="47.29185" lon="4.94935">
        <ele>425.1</ele>
        <time>2012-07-24T08:58:51Z</time>
      </trkpt>
      <trkpt lat="47.29172" lon="4.94952">
        <ele>424.972</ele>
        <time>2012-07-24T08:59:02Z</time>
      </trkpt>
      <trkpt lat="47.29162" lon="4.9497">
        <ele>425.266</ele>
        <time>2012-07-24T08:59:13Z</time>
      </trkpt>
      <trkpt lat="47.29153" lon="4.94987">
        <ele>426.204</ele>
        <time>2012-07-24T08:59:24Z</time>
      </trkpt>
      <trkpt lat="47.29147" lon="4.95007">
        <ele>427.107</ele>
        <time>2012-07-24T08:59:35Z</time>
      </trkpt>
      <trkpt lat="47.29138" lon="4.95025">
        <ele>426.478</ele>
        <time>2012-07-24T08:59:46Z</time>
      </trkpt>
      <trkpt lat="47.29133" lon="4.95042">
        <ele>427.045</ele>
        <time>2012-07-24T08:59:57Z</time>
      </trkpt>
      <trkpt lat="47.29125" lon="4.95062">
        <ele>428.345</ele>
        <time>2012-07-24T09:00:08Z</time>
      </trkpt>
      <trkpt lat="47.29118" lon="4.95082">
        <ele>429.021</ele>
        <time>2012-07-24T09:00:19Z</time>
      </trkpt>
      <trkpt lat="47.29112" lon="4.95098">
        <ele>429.727</ele>
        <time>2012-07-24T09:00:30Z</time>
      </trkpt>
      <trkpt lat="47.29105" lon="4.95118">
        <ele>429.741</ele>
        <time>2012-07-24T09:00:41Z</time>
      </trkpt>
      <trkpt lat="47.29098" lon="4.95138">
        <ele>431.198</ele>
        <time>2012-07-24T09:00:52Z</time>
      </trkpt>
      <trkpt lat="47.2909" lon="4.95158">
        <ele>430.98</ele>
        <time>2012-07-24T09:01:03Z</time>
      </trkpt>
      <trkpt lat="47.29083" lon="4.95177">
        <ele>431.655</ele>
        <time>2012-07-24T09:01:14Z</time>
      </trkpt>
      <trkpt lat="47.29075" lon="4.95195">
        <ele>431.793</ele>
        <time>2012-07-24T09:01:25Z</time>
      </trkpt>
      <trkpt lat="47.29067" lon="4.95213">
        <ele>431.801</ele>
        <time>2012-07-24T09:01:36Z</time>
      </trkpt>
      <trkpt lat="47.2906" lon="4.95227">
        <ele>432.467</ele>
        <time>2012-07-24T09:01:47Z</time>
      </trkpt>
      <trkpt lat="47.29052" lon="4.95243">
        <ele>432.599</ele>
        <time>2012-07-24T09:01:58Z</time>
      </trkpt>
      <trkpt lat="47.29043" lon="4.95263">
        <ele>433.819</ele>
        <time>2012-07-24T09:02:09Z</time>
      </trkpt>
      <trkpt lat="47.29037" lon="4.9528">
        <ele>434.748</ele>
        <time>2012-07-24T09:02:20Z</time>
      </trkpt>
      <trkpt lat="47.29027" lon="4.95295">
        <ele>434.631</ele>
        <time>2012-07-24T09:02:31Z</time>
      </trkpt>
      <trkpt lat="47.29017" lon="4.95313">
        <ele>433.202</ele>
        <time>2012-07-24T09:02:42Z</time>
      </trkpt>
      <trkpt lat="47.29017" lon="4.95333">
        <ele>431.867</ele>
        <time>2012-07-24T09:02:53Z</time>
      </trkpt>
      <trkpt lat="47.29027" lon="4.9535">
        <ele>430.687</ele>
        <time>2012-07-24T09:03:04Z</time>
      </trkpt>
      <trkpt lat="47.29038" lon="4.95362">
        <ele>429.974</ele>
        <time>2012-07-24T09:03:15Z</time>
      </trkpt>
      <trkpt lat="47.29045" lon="4.9537">
        <ele>429.094</ele>
        <time>2012-07-24T09:03:26Z</time>
      </trkpt>
      <trkpt lat="47.2905" lon="4.95378">
        <ele>429.448</ele>
        <time>2012-07-24T09:03:37Z</time>
      </trkpt>
      <trkpt lat="47.2906" lon="4.95383">
        <ele>429.318</ele>
        <time>2012-07-24T09:03:48Z</time>
      </trkpt>
      <trkpt lat="47.29068" lon="4.95392">
        <ele>428.687</ele>
        <time>2012-07-24T09:03:59Z</time>
      </trkpt>
      <trkpt lat="47.29082" lon="4.95402">
        <ele>428.113</ele>
        <time>2012-07-24T09:04:10Z</time>
      </trkpt>
      <trkpt lat="47.29095" lon="4.95408">
        <ele>427.548</ele>
        <time>2012-07-24T09:04:21Z</time>
      </trkpt>
      <trkpt lat="47.29112" lon="4.95415">
        <ele>426.964</ele>
        <time>2012-07-24T09:04:32Z</time>
      </trkpt>
      <trkpt lat="47.29127" lon="4.9542">
        <ele>427.99</ele>
        <time>2012-07-24T09:04:43Z</time>
      </trkpt>
      <trkpt lat="47.29138" lon="4.95423">
        <ele>427.758</ele>
        <time>2012-07-24T09:04:54Z</time>
      </trkpt>
      <trkpt lat="47.29143" lon="4.95425">
        <ele>428.824</ele>
        <time>2012-07-24T09:05:05Z</time>
      </trkpt>
      <trkpt lat="47.2915" lon="4.95435">
        <ele>426.938</ele>
        <time>2012-07-24T09:05:16Z</time>
      </trkpt>
      <trkpt lat="47.29157" lon="4.9544">
        <ele>426.724</ele>
        <time>2012-07-24T09:05:27Z</time>
      </trkpt>
      <trkpt lat="47.29162" lon="4.95448">
        <ele>427.836</ele>
        <time>2012-07-24T09:05:38Z</time>
      </trkpt>
      <trkpt lat="47.29173" lon="4.95465">
        <ele>428.773</ele>
        <time>2012-07-24T09:05:49Z</time>
      </trkpt>
      <trkpt lat="47.29175" lon="4.95477">
        <ele>429.419</ele>
        <time>2012-07-24T09:06:00Z</time>
      </trkpt>
      <trkpt lat="47.29178" lon="4.95485">
        <ele>429.477</ele>
        <time>2012-07-24T09:06:11Z</time>
      </trkpt>
      <trkpt lat="47.29182" lon="4.95502">
        <ele>430.388</ele>
        <time>2012-07-24T09:06:22Z</time>
      </trkpt>
      <trkpt lat="47.29185" lon="4.9552">
        <ele>432.588</ele>
        <time>2012-07-24T09:06:33Z</time>
      </trkpt>
      <trkpt lat="47.2919" lon="4.95537">
        <ele>435.118</ele>
        <time>2012-07-24T09:06:44Z</time>
      </trkpt>
      <trkpt lat="47.29197" lon="4.95562">
        <ele>436.155</ele>
        <time>2012-07-24T09:06:55Z</time>
      </trkpt>
      <trkpt lat="47.292" lon="4.95573">
        <ele>436.201</ele>
        <time>2012-07-24T09:07:06Z</time>
      </trkpt>
      <trkpt lat="47.29203" lon="4.95583">
        <ele>437.285</ele>
        <time>2012-07-24T09:07:17Z</time>
      </trkpt>
      <trkpt lat="47.29208" lon="4.95608">
        <ele>438.241</ele>
        <time>2012-07-24T09:07:28Z</time>
      </trkpt>
      <trkpt lat="47.29213" lon="4.95622">
        <ele>436.736</ele>
        <time>2012-07-24T09:07:39Z</time>
      </trkpt>
      <trkpt lat="47.29218" lon="4.95633">
        <ele>435.87</ele>
        <time>2012-07-24T09:07:50Z</time>
      </trkpt>
      <trkpt lat="47.29225" lon="4.95653">
        <ele>434.841</ele>
        <time>2012-07-24T09:08:01Z</time>
      </trkpt>
      <trkpt lat="47.29233" lon="4.9568">
        <ele>435.075</ele>
        <time>2012-07-24T09:08:12Z</time>
      </trkpt>
      <trkpt lat="47.29238" lon="4.95705">
        <ele>438.661</ele>
        <time>2012-07-24T09:08:23Z</time>
      </trkpt>
      <trkpt lat="47.29248" lon="4.95728">
        <ele>438.809</ele>
        <time>2012-07-24T09:08:34Z</time>
      </trkpt>
      <trkpt lat="47.29255" lon="4.9574">
        <ele>437.784</ele>
        <time>2012-07-24T09:08:45Z</time>
      </trkpt>
      <trkpt lat="47.29267" lon="4.95758">
        <ele>437.628</ele>
        <time>2012-07-24T09:08:56Z</time>
      </trkpt>
      <trkpt lat="47.2927" lon="4.95767">
        <ele>436.814</ele>
        <time>2012-07-24T09:09:07Z</time>
      </trkpt>
      <trkpt lat="47.29272" lon="4.95773">
        <ele>436.179</ele>
        <time>2012-07-24T09:09:18Z</time>
      </trkpt>
      <trkpt lat="47.2928" lon="4.9579">
        <ele>409.6</ele>
        <time>2012-07-24T09:09:29Z</time>
      </trkpt>
      <trkpt lat="47.29287" lon="4.95812">
        <ele>438.118</ele>
        <time>2012-07-24T09:09:40Z</time>
      </trkpt>
      <trkpt lat="47.2929" lon="4.9582">
        <ele>438.358</ele>
        <time>2012-07-24T09:09:51Z</time>
      </trkpt>
      <trkpt lat="47.29298" lon="4.95838">
        <ele>437.844</ele>
        <time>2012-07-24T09:10:02Z</time>
      </trkpt>
      <trkpt lat="47.29305" lon="4.9585">
        <ele>437.619</ele>
        <time>2012-07-24T09:10:13Z</time>
      </trkpt>
      <trkpt lat="47.2931" lon="4.95867">
        <ele>436.666</ele>
        <time>2012-07-24T09:10:24Z</time>
      </trkpt>
      <trkpt lat="47.29318" lon="4.95882">
        <ele>434.657</ele>
        <time>2012-07-24T09:10:35Z</time>
      </trkpt>
      <trkpt lat="47.29337" lon="4.95895">
        <ele>432.501</ele>
        <time>2012-07-24T09:10:46Z</time>
      </trkpt>
      <trkpt lat="47.29353" lon="4.959">
        <ele>430.279</ele>
        <time>2012-07-24T09:10:57Z</time>
      </trkpt>
      <trkpt lat="47.29362" lon="4.95902">
        <ele>430.344</ele>
        <time>2012-07-24T09:11:08Z</time>
      </trkpt>
      <trkpt lat="47.29367" lon="4.95903">
        <ele>431.95</ele>
        <time>2012-07-24T09:11:19Z</time>
      </trkpt>
      <trkpt lat="47.29372" lon="4.95903">
        <ele>430.751</ele>
        <time>2012-07-24T09:11:30Z</time>
      </trkpt>
      <trkpt lat="47.29383" lon="4.95908">
        <ele>429.909</ele>
        <time>2012-07-24T09:11:41Z</time>
      </trkpt>
      <trkpt lat="47.29392" lon="4.95917">
        <ele>429.84</ele>
        <time>2012-07-24T09:11:52Z</time>
      </trkpt>
      <trkpt lat="47.294" lon="4.95922">
        <ele>429.948</ele>
        <time>2012-07-24T09:12:03Z</time>
      </trkpt>
      <trkpt lat="47.2941" lon="4.9593">
        <ele>430.012</ele>
        <time>2012-07-24T09:12:14Z</time>
      </trkpt>
      <trkpt lat="47.2942" lon="4.9594">
        <ele>430.394</ele>
        <time>2012-07-24T09:12:25Z</time>
      </trkpt>
      <trkpt lat="47.29428" lon="4.95945">
        <ele>428.765</ele>
        <time>2012-07-24T09:12:36Z</time>
      </trkpt>
      <trkpt lat="47.29435" lon="4.95957">
        <ele>426.864</ele>
        <time>2012-07-24T09:12:47Z</time>
      </trkpt>
      <trkpt lat="47.29442" lon="4.95965">
        <ele>428.946</ele>
        <time>2012-07-24T09:12:58Z</time>
      </trkpt>
      <trkpt lat="47.29445" lon="4.95973">
        <ele>429.201</ele>
        <time>2012-07-24T09:13:09Z</time>
      </trkpt>
      <trkpt lat="47.29448" lon="4.9598">
        <ele>428.271</ele>
        <time>2012-07-24T09:13:20Z</time>
      </trkpt>
      <trkpt lat="47.2945" lon="4.95988">
        <ele>429.656</ele>
        <time>2012-07-24T09:13:31Z</time>
      </trkpt>
      <trkpt lat="47.29458" lon="4.96003">
        <ele>428.437</ele>
        <time>2012-07-24T09:13:42Z</time>
      </trkpt>
      <trkpt lat="47.2946" lon="4.96017">
        <ele>428.676</ele>
        <time>2012-07-24T09:13:53Z</time>
      </trkpt>
      <trkpt lat="47.29463" lon="4.96038">
        <ele>430.504</ele>
        <time>2012-07-24T09:14:04Z</time>
      </trkpt>
      <trkpt lat="47.2947" lon="4.96055">
        <ele>432.836</ele>
        <time>2012-07-24T09:14:15Z</time>
      </trkpt>
      <trkpt lat="47.2948" lon="4.96078">
        <ele>433.673</ele>
        <time>2012-07-24T09:14:26Z</time>
      </trkpt>
      <trkpt lat="47.29482" lon="4.96097">
        <ele>434.471</ele>
        <time>2012-07-24T09:14:37Z</time>
      </trkpt>
      <trkpt lat="47.29483" lon="4.96107">
        <ele>434.152</ele>
        <time>2012-07-24T09:14:48Z</time>
      </trkpt>
      <trkpt lat="47.29492" lon="4.96127">
        <ele>432.335</ele>
        <time>2012-07-24T09:14:59Z</time>
      </trkpt>
      <trkpt lat="47.29495" lon="4.96145">
        <ele>432.333</ele>
        <time>2012-07-24T09:15:10Z</time>
      </trkpt>
      <trkpt lat="47.29498" lon="4.96165">
        <ele>433.349</ele>
        <time>2012-07-24T09:15:21Z</time>
      </trkpt>
      <trkpt lat="47.29508" lon="4.96188">
        <ele>433.557</ele>
        <time>2012-07-24T09:15:32Z</time>
      </trkpt>
      <trkpt lat="47.29515" lon="4.96207">
        <ele>433.506</ele>
        <time>2012-07-24T09:15:43Z</time>
      </trkpt>
      <trkpt lat="47.29525" lon="4.96223">
        <ele>432.191</ele>
        <time>2012-07-24T09:15:54Z</time>
      </trkpt>
      <trkpt lat="47.29533" lon="4.96242">
        <ele>432.657</ele>
        <time>2012-07-24T09:16:05Z</time>
      </trkpt>
      <trkpt lat="47.29538" lon="4.96255">
        <ele>433.729</ele>
        <time>2012-07-24T09:16:16Z</time>
      </trkpt>
      <trkpt lat="47.29545" lon="4.9627">
        <ele>432.337</ele>
        <time>2012-07-24T09:16:27Z</time>
      </trkpt>
      <trkpt lat="47.29548" lon="4.96283">
        <ele>431.063</ele>
        <time>2012-07-24T09:16:38Z</time>
      </trkpt>
      <trkpt lat="47.29545" lon="4.96302">
        <ele>434.003</ele>
        <time>2012-07-24T09:16:49Z</time>
      </trkpt>
      <trkpt lat="47.29557" lon="4.96325">
        <ele>429.463</ele>
        <time>2012-07-24T09:17:00Z</time>
      </trkpt>
      <trkpt lat="47.29563" lon="4.9634">
        <ele>427.546</ele>
        <time>2012-07-24T09:17:11Z</time>
      </trkpt>
      <trkpt lat="47.2957" lon="4.96357">
        <ele>426.288</ele>
        <time>2012-07-24T09:17:22Z</time>
      </trkpt>
      <trkpt lat="47.29575" lon="4.96378">
        <ele>427.01</ele>
        <time>2012-07-24T09:17:33Z</time>
      </trkpt>
      <trkpt lat="47.29583" lon="4.96393">
        <ele>426.597</ele>
        <time>2012-07-24T09:17:44Z</time>
      </trkpt>
      <trkpt lat="47.29585" lon="4.9641">
        <ele>424.922</ele>
        <time>2012-07-24T09:17:55Z</time>
      </trkpt>
      <trkpt lat="47.29592" lon="4.96432">
        <ele>426.037</ele>
        <time>2012-07-24T09:18:06Z</time>
      </trkpt>
      <trkpt lat="47.29597" lon="4.96445">
        <ele>425.586</ele>
        <time>2012-07-24T09:18:17Z</time>
      </trkpt>
      <trkpt lat="47.29597" lon="4.9646">
        <ele>425.531</ele>
        <time>2012-07-24T09:18:28Z</time>
      </trkpt>
      <trkpt lat="47.29598" lon="4.9648">
        <ele>425.215</ele>
        <time>2012-07-24T09:18:39Z</time>
      </trkpt>
      <trkpt lat="47.29598" lon="4.965">
        <ele>424.653</ele>
        <time>2012-07-24T09:18:50Z</time>
      </trkpt>
      <trkpt lat="47.296" lon="4.96515">
        <ele>424.967</ele>
        <time>2012-07-24T09:19:01Z</time>
      </trkpt>
      <trkpt lat="47.296" lon="4.96537">
        <ele>425.434</ele>
        <time>2012-07-24T09:19:12Z</time>
      </trkpt>
      <trkpt lat="47.29603" lon="4.9655">
        <ele>425.156</ele>
        <time>2012-07-24T09:19:23Z</time>
      </trkpt>
      <trkpt lat="47.296" lon="4.96575">
        <ele>427.084</ele>
        <time>2012-07-24T09:19:34Z</time>
      </trkpt>
      <trkpt lat="47.29597" lon="4.96605">
        <ele>429.614</ele>
        <time>2012-07-24T09:19:45Z</time>
      </trkpt>
      <trkpt lat="47.29595" lon="4.96617">
        <ele>429.305</ele>
        <time>2012-07-24T09:19:56Z</time>
      </trkpt>
      <trkpt lat="47.29593" lon="4.96633">
        <ele>429.105</ele>
        <time>2012-07-24T09:20:07Z</time>
      </trkpt>
      <trkpt lat="47.29587" lon="4.96655">
        <ele>429.585</ele>
        <time>2012-07-24T09:20:18Z</time>
      </trkpt>
      <trkpt lat="47.29583" lon="4.96675">
        <ele>430.256</ele>
        <time>2012-07-24T09:20:29Z</time>
      </trkpt>
      <trkpt lat="47.29577" lon="4.96687">
        <ele>429.639</ele>
        <time>2012-07-24T09:20:40Z</time>
      </trkpt>
      <trkpt lat="47.29565" lon="4.96705">
        <ele>428.76</ele>
        <time>2012-07-24T09:20:51Z</time>
      </trkpt>
      <trkpt lat="47.2956" lon="4.96722">
        <ele>426.013</ele>
        <time>2012-07-24T09:21:02Z</time>
      </trkpt>
      <trkpt lat="47.29553" lon="4.96738">
        <ele>421.781</ele>
        <time>2012-07-24T09:21:13Z</time>
      </trkpt>
      <trkpt lat="47.29552" lon="4.96742">
        <ele>420.287</ele>
        <time>2012-07-24T09:21:24Z</time>
      </trkpt>
      <trkpt lat="47.29552" lon="4.9675">
        <ele>416.978</ele>
        <time>2012-07-24T09:21:35Z</time>
      </trkpt>
      <trkpt lat="47.29553" lon="4.96762">
        <ele>412.686</ele>
        <time>2012-07-24T09:21:46Z</time>
      </trkpt>
      <trkpt lat="47.2955" lon="4.96768">
        <ele>411.766</ele>
        <time>2012-07-24T09:21:57Z</time>
      </trkpt>
      <trkpt lat="47.29548" lon="4.96775">
        <ele>410.271</ele>
        <time>2012-07-24T09:22:08Z</time>
      </trkpt>
      <trkpt lat="47.29545" lon="4.96782">
        <ele>409.4</ele>
        <time>2012-07-24T09:22:19Z</time>
      </trkpt>
      <trkpt lat="47.2954" lon="4.9679">
        <ele>405.918</ele>
        <time>2012-07-24T09:22:30Z</time>
      </trkpt>
      <trkpt lat="47.29538" lon="4.96797">
        <ele>405.082</ele>
        <time>2012-07-24T09:22:41Z</time>
      </trkpt>
      <trkpt lat="47.29533" lon="4.96808">
        <ele>379.5</ele>
        <time>2012-07-24T09:22:52Z</time>
      </trkpt>
      <trkpt lat="47.29532" lon="4.96817">
        <ele>398.909</ele>
        <time>2012-07-24T09:23:03Z</time>
      </trkpt>
      <trkpt lat="47.29533" lon="4.96828">
        <ele>396.895</ele>
        <time>2012-07-24T09:23:14Z</time>
      </trkpt>
      <trkpt lat="47.29535" lon="4.96843">
        <ele>394.445</ele>
        <time>2012-07-24T09:23:25Z</time>
      </trkpt>
      <trkpt lat="47.29538" lon="4.96862">
        <ele>390.99</ele>
        <time>2012-07-24T09:23:36Z</time>
      </trkpt>
      <trkpt lat="47.29545" lon="4.9687">
        <ele>390.535</ele>
        <time>2012-07-24T09:23:47Z</time>
      </trkpt>
      <trkpt lat="47.29547" lon="4.96875">
        <ele>390.479</ele>
        <time>2012-07-24T09:23:58Z</time>
      </trkpt>
      <trkpt lat="47.29548" lon="4.96877">
        <ele>390.797</ele>
        <time>2012-07-24T09:24:09Z</time>
      </trkpt>
      <trkpt lat="47.29552" lon="4.96883">
        <ele>390.049</ele>
        <time>2012-07-24T09:24:20Z</time>
      </trkpt>
      <trkpt lat="47.29553" lon="4.96892">
        <ele>390.969</ele>
        <time>2012-07-24T09:24:31Z</time>
      </trkpt>
      <trkpt lat="47.29557" lon="4.969">
        <ele>390.559</ele>
        <time>2012-07-24T09:24:42Z</time>
      </trkpt>
      <trkpt lat="47.29558" lon="4.969">
        <ele>389.835</ele>
        <time>2012-07-24T09:24:53Z</time>
      </trkpt>
      <trkpt lat="47.2956" lon="4.96903">
        <ele>389.594</ele>
        <time>2012-07-24T09:25:04Z</time>
      </trkpt>
      <trkpt lat="47.29563" lon="4.96907">
        <ele>387.271</ele>
        <time>2012-07-24T09:25:15Z</time>
      </trkpt>
      <trkpt lat="47.29565" lon="4.96908">
        <ele>387.24</ele>
        <time>2012-07-24T09:25:26Z</time>
      </trkpt>
      <trkpt lat="47.29565" lon="4.9691">
        <ele>386.494</ele>
        <time>2012-07-24T09:25:37Z</time>
      </trkpt>
      <trkpt lat="47.29567" lon="4.96912">
        <ele>386.333</ele>
        <time>2012-07-24T09:25:48Z</time>
      </trkpt>
      <trkpt lat="47.29567" lon="4.96912">
        <ele>386.333</ele>
        <time>2012-07-24T09:25:59Z</time>
      </trkpt>
      <trkpt lat="47.2957" lon="4.96917">
        <ele>384.889</ele>
        <time>2012-07-24T09:26:10Z</time>
      </trkpt>
      <trkpt lat="47.2957" lon="4.96917">
        <ele>384.889</ele>
        <time>2012-07-24T09:26:21Z</time>
      </trkpt>
      <trkpt lat="47.29572" lon="4.96917">
        <ele>385.084</ele>
        <time>2012-07-24T09:26:32Z</time>
      </trkpt>
      <trkpt lat="47.29572" lon="4.96918">
        <ele>385.32</ele>
        <time>2012-07-24T09:26:43Z</time>
      </trkpt>
      <trkpt lat="47.29572" lon="4.9692">
        <ele>381.061</ele>
        <time>2012-07-24T09:26:54Z</time>
      </trkpt>
      <trkpt lat="47.29565" lon="4.9692">
        <ele>375.98</ele>
        <time>2012-07-24T09:27:05Z</time>
      </trkpt>
      <trkpt lat="47.29558" lon="4.96917">
        <ele>373.607</ele>
        <time>2012-07-24T09:27:16Z</time>
      </trkpt>
      <trkpt lat="47.29547" lon="4.96915">
        <ele>373.922</ele>
        <time>2012-07-24T09:27:27Z</time>
      </trkpt>
      <trkpt lat="47.29537" lon="4.96918">
        <ele>373.723</ele>
        <time>2012-07-24T09:27:38Z</time>
      </trkpt>
      <trkpt lat="47.2953" lon="4.96923">
        <ele>373.614</ele>
        <time>2012-07-24T09:27:49Z</time>
      </trkpt>
      <trkpt lat="47.29525" lon="4.9693">
        <ele>371.627</ele>
        <time>2012-07-24T09:28:00Z</time>
      </trkpt>
      <trkpt lat="47.2952" lon="4.96932">
        <ele>371.574</ele>
        <time>2012-07-24T09:28:11Z</time>
      </trkpt>
      <trkpt lat="47.29515" lon="4.96935">
        <ele>371.378</ele>
        <time>2012-07-24T09:28:22Z</time>
      </trkpt>
      <trkpt lat="47.29515" lon="4.96937">
        <ele>371.591</ele>
        <time>2012-07-24T09:28:33Z</time>
      </trkpt>
      <trkpt lat="47.29515" lon="4.96937">
        <ele>371.187</ele>
        <time>2012-07-24T09:28:44Z</time>
      </trkpt>
      <trkpt lat="47.29515" lon="4.96937">
        <ele>371.187</ele>
        <time>2012-07-24T09:28:55Z</time>
      </trkpt>
      <trkpt lat="47.29515" lon="4.96937">
        <ele>371.187</ele>
        <time>2012-07-24T09:29:06Z</time>
      </trkpt>
      <trkpt lat="47.29515" lon="4.96937">
        <ele>370.813</ele>
        <time>2012-07-24T09:29:17Z</time>
      </trkpt>
      <trkpt lat="47.29515" lon="4.96937">
        <ele>370.813</ele>
        <time>2012-07-24T09:29:28Z</time>
      </trkpt>
      <trkpt lat="47.29515" lon="4.96937">
        <ele>370.596</ele>
        <time>2012-07-24T09:29:39Z</time>
      </trkpt>
      <trkpt lat="47.29515" lon="4.96937">
        <ele>370.453</ele>
        <time>2012-07-24T09:29:50Z</time>
      </trkpt>
      <trkpt lat="47.29515" lon="4.96937">
        <ele>370.453</ele>
        <time>2012-07-24T09:30:01Z</time>
      </trkpt>
      <trkpt lat="47.29515" lon="4.96937">
        <ele>370.453</ele>
        <time>2012-07-24T09:30:12Z</time>
      </trkpt>
      <trkpt lat="47.29513" lon="4.96938">
        <ele>370.325</ele>
        <time>2012-07-24T09:30:23Z</time>
      </trkpt>
      <trkpt lat="47.29513" lon="4.96938">
        <ele>369.754</ele>
        <time>2012-07-24T09:30:34Z</time>
      </trkpt>
      <trkpt lat="47.29513" lon="4.96938">
        <ele>369.754</ele>
        <time>2012-07-24T09:30:45Z</time>
      </trkpt>
      <trkpt lat="47.29513" lon="4.96938">
        <ele>369.754</ele>
        <time>2012-07-24T09:30:56Z</time>
      </trkpt>
      <trkpt lat="47.29513" lon="4.96938">
        <ele>369.754</ele>
        <time>2012-07-24T09:31:07Z</time>
      </trkpt>
      <trkpt lat="47.29513" lon="4.96938">
        <ele>369.581</ele>
        <time>2012-07-24T09:31:18Z</time>
      </trkpt>
      <trkpt lat="47.29513" lon="4.9694">
        <ele>369.48</ele>
        <time>2012-07-24T09:31:29Z</time>
      </trkpt>
      <trkpt lat="47.29508" lon="4.96943">
        <ele>369.001</ele>
        <time>2012-07-24T09:31:40Z</time>
      </trkpt>
      <trkpt lat="47.29497" lon="4.96958">
        <ele>366.865</ele>
        <time>2012-07-24T09:31:51Z</time>
      </trkpt>
      <trkpt lat="47.29482" lon="4.96973">
        <ele>364.869</ele>
        <time>2012-07-24T09:32:02Z</time>
      </trkpt>
      <trkpt lat="47.29462" lon="4.96987">
        <ele>363.442</ele>
        <time>2012-07-24T09:32:13Z</time>
      </trkpt>
      <trkpt lat="47.29453" lon="4.97002">
        <ele>362.657</ele>
        <time>2012-07-24T09:32:24Z</time>
      </trkpt>
      <trkpt lat="47.2944" lon="4.9702">
        <ele>360.136</ele>
        <time>2012-07-24T09:32:35Z</time>
      </trkpt>
      <trkpt lat="47.29428" lon="4.97032">
        <ele>358.947</ele>
        <time>2012-07-24T09:32:46Z</time>
      </trkpt>
      <trkpt lat="47.29417" lon="4.97042">
        <ele>357.863</ele>
        <time>2012-07-24T09:32:57Z</time>
      </trkpt>
      <trkpt lat="47.29407" lon="4.97053">
        <ele>334.5</ele>
        <time>2012-07-24T09:33:08Z</time>
      </trkpt>
      <trkpt lat="47.29393" lon="4.97073">
        <ele>351.635</ele>
        <time>2012-07-24T09:33:19Z</time>
      </trkpt>
      <trkpt lat="47.2938" lon="4.97088">
        <ele>352.638</ele>
        <time>2012-07-24T09:33:30Z</time>
      </trkpt>
      <trkpt lat="47.29372" lon="4.97098">
        <ele>352.817</ele>
        <time>2012-07-24T09:33:41Z</time>
      </trkpt>
      <trkpt lat="47.29358" lon="4.97107">
        <ele>352.282</ele>
        <time>2012-07-24T09:33:52Z</time>
      </trkpt>
      <trkpt lat="47.2934" lon="4.97122">
        <ele>349.576</ele>
        <time>2012-07-24T09:34:03Z</time>
      </trkpt>
      <trkpt lat="47.29327" lon="4.97133">
        <ele>349.522</ele>
        <time>2012-07-24T09:34:14Z</time>
      </trkpt>
      <trkpt lat="47.29313" lon="4.97152">
        <ele>349.577</ele>
        <time>2012-07-24T09:34:25Z</time>
      </trkpt>
      <trkpt lat="47.29302" lon="4.97165">
        <ele>349.645</ele>
        <time>2012-07-24T09:34:36Z</time>
      </trkpt>
      <trkpt lat="47.29293" lon="4.9718">
        <ele>348.917</ele>
        <time>2012-07-24T09:34:47Z</time>
      </trkpt>
      <trkpt lat="47.29282" lon="4.97192">
        <ele>349.589</ele>
        <time>2012-07-24T09:34:58Z</time>
      </trkpt>
      <trkpt lat="47.29277" lon="4.972">
        <ele>348.672</ele>
        <time>2012-07-24T09:35:09Z</time>
      </trkpt>
      <trkpt lat="47.29268" lon="4.97208">
        <ele>348.598</ele>
        <time>2012-07-24T09:35:20Z</time>
      </trkpt>
      <trkpt lat="47.29255" lon="4.9722">
        <ele>349.188</ele>
        <time>2012-07-24T09:35:31Z</time>
      </trkpt>
      <trkpt lat="47.29245" lon="4.97228">
        <ele>350.953</ele>
        <time>2012-07-24T09:35:42Z</time>
      </trkpt>
      <trkpt lat="47.29233" lon="4.97243">
        <ele>350.814</ele>
        <time>2012-07-24T09:35:53Z</time>
      </trkpt>
      <trkpt lat="47.29223" lon="4.97253">
        <ele>350.157</ele>
        <time>2012-07-24T09:36:04Z</time>
      </trkpt>
      <trkpt lat="47.29208" lon="4.97267">
        <ele>347.93</ele>
        <time>2012-07-24T09:36:15Z</time>
      </trkpt>
      <trkpt lat="47.29192" lon="4.97285">
        <ele>346.362</ele>
        <time>2012-07-24T09:36:26Z</time>
      </trkpt>
      <trkpt lat="47.29182" lon="4.97303">
        <ele>346.853</ele>
        <time>2012-07-24T09:36:37Z</time>
      </trkpt>
      <trkpt lat="47.29168" lon="4.9732">
        <ele>346.066</ele>
        <time>2012-07-24T09:36:48Z</time>
      </trkpt>
      <trkpt lat="47.29158" lon="4.97337">
        <ele>346.353</ele>
        <time>2012-07-24T09:36:59Z</time>
      </trkpt>
      <trkpt lat="47.29143" lon="4.9735">
        <ele>345.327</ele>
        <time>2012-07-24T09:37:10Z</time>
      </trkpt>
      <trkpt lat="47.29128" lon="4.97367">
        <ele>344.806</ele>
        <time>2012-07-24T09:37:21Z</time>
      </trkpt>
      <trkpt lat="47.29122" lon="4.97382">
        <ele>344.373</ele>
        <time>2012-07-24T09:37:32Z</time>
      </trkpt>
      <trkpt lat="47.29115" lon="4.97398">
        <ele>344.599</ele>
        <time>2012-07-24T09:37:43Z</time>
      </trkpt>
      <trkpt lat="47.29105" lon="4.97417">
        <ele>343.507</ele>
        <time>2012-07-24T09:37:54Z</time>
      </trkpt>
      <trkpt lat="47.2909" lon="4.9743">
        <ele>344.53</ele>
        <time>2012-07-24T09:38:05Z</time>
      </trkpt>
      <trkpt lat="47.29077" lon="4.97442">
        <ele>343.19</ele>
        <time>2012-07-24T09:38:16Z</time>
      </trkpt>
      <trkpt lat="47.2907" lon="4.97457">
        <ele>343.771</ele>
        <time>2012-07-24T09:38:27Z</time>
      </trkpt>
      <trkpt lat="47.29063" lon="4.97477">
        <ele>343.381</ele>
        <time>2012-07-24T09:38:38Z</time>
      </trkpt>
      <trkpt lat="47.29052" lon="4.97497">
        <ele>342.008</ele>
        <time>2012-07-24T09:38:49Z</time>
      </trkpt>
      <trkpt lat="47.29042" lon="4.97518">
        <ele>339.884</ele>
        <time>2012-07-24T09:39:00Z</time>
      </trkpt>
      <trkpt lat="47.2903" lon="4.97537">
        <ele>336.659</ele>
        <time>2012-07-24T09:39:11Z</time>
      </trkpt>
      <trkpt lat="47.29023" lon="4.97555">
        <ele>335.815</ele>
        <time>2012-07-24T09:39:22Z</time>
      </trkpt>
      <trkpt lat="47.29015" lon="4.97573">
        <ele>318.3</ele>
        <time>2012-07-24T09:39:33Z</time>
      </trkpt>
      <trkpt lat="47.29012" lon="4.97595">
        <ele>333.728</ele>
        <time>2012-07-24T09:39:44Z</time>
      </trkpt>
      <trkpt lat="47.29008" lon="4.97615">
        <ele>334.787</ele>
        <time>2012-07-24T09:39:55Z</time>
      </trkpt>
      <trkpt lat="47.29002" lon="4.97633">
        <ele>334.234</ele>
        <time>2012-07-24T09:40:06Z</time>
      </trkpt>
      <trkpt lat="47.28995" lon="4.9765">
        <ele>334.168</ele>
        <time>2012-07-24T09:40:17Z</time>
      </trkpt>
      <trkpt lat="47.28983" lon="4.97668">
        <ele>332.783</ele>
        <time>2012-07-24T09:40:28Z</time>
      </trkpt>
      <trkpt lat="47.28978" lon="4.9768">
        <ele>332.347</ele>
        <time>2012-07-24T09:40:39Z</time>
      </trkpt>
      <trkpt lat="47.28975" lon="4.97693">
        <ele>333.34</ele>
        <time>2012-07-24T09:40:50Z</time>
      </trkpt>
      <trkpt lat="47.28962" lon="4.97705">
        <ele>316</ele>
        <time>2012-07-24T09:41:01Z</time>
      </trkpt>
      <trkpt lat="47.2895" lon="4.9772">
        <ele>332.232</ele>
        <time>2012-07-24T09:41:12Z</time>
      </trkpt>
      <trkpt lat="47.28935" lon="4.97738">
        <ele>330.579</ele>
        <time>2012-07-24T09:41:23Z</time>
      </trkpt>
      <trkpt lat="47.28922" lon="4.97753">
        <ele>332.363</ele>
        <time>2012-07-24T09:41:34Z</time>
      </trkpt>
      <trkpt lat="47.28908" lon="4.97773">
        <ele>331.519</ele>
        <time>2012-07-24T09:41:45Z</time>
      </trkpt>
      <trkpt lat="47.28903" lon="4.97792">
        <ele>332.322</ele>
        <time>2012-07-24T09:41:56Z</time>
      </trkpt>
      <trkpt lat="47.28898" lon="4.97815">
        <ele>330.016</ele>
        <time>2012-07-24T09:42:07Z</time>
      </trkpt>
      <trkpt lat="47.2889" lon="4.97832">
        <ele>327.945</ele>
        <time>2012-07-24T09:42:18Z</time>
      </trkpt>
      <trkpt lat="47.2887" lon="4.9784">
        <ele>311.8</ele>
        <time>2012-07-24T09:42:29Z</time>
      </trkpt>
      <trkpt lat="47.28852" lon="4.97852">
        <ele>326.031</ele>
        <time>2012-07-24T09:42:40Z</time>
      </trkpt>
      <trkpt lat="47.28837" lon="4.97863">
        <ele>326.546</ele>
        <time>2012-07-24T09:42:51Z</time>
      </trkpt>
      <trkpt lat="47.28827" lon="4.97877">
        <ele>327.82</ele>
        <time>2012-07-24T09:43:02Z</time>
      </trkpt>
      <trkpt lat="47.28817" lon="4.97888">
        <ele>326.575</ele>
        <time>2012-07-24T09:43:13Z</time>
      </trkpt>
      <trkpt lat="47.2881" lon="4.97898">
        <ele>325.353</ele>
        <time>2012-07-24T09:43:24Z</time>
      </trkpt>
      <trkpt lat="47.28807" lon="4.97915">
        <ele>325.04</ele>
        <time>2012-07-24T09:43:35Z</time>
      </trkpt>
      <trkpt lat="47.28805" lon="4.97923">
        <ele>325.568</ele>
        <time>2012-07-24T09:43:46Z</time>
      </trkpt>
      <trkpt lat="47.28798" lon="4.97928">
        <ele>324.862</ele>
        <time>2012-07-24T09:43:57Z</time>
      </trkpt>
      <trkpt lat="47.28792" lon="4.97935">
        <ele>327.343</ele>
        <time>2012-07-24T09:44:08Z</time>
      </trkpt>
      <trkpt lat="47.28777" lon="4.97945">
        <ele>326.938</ele>
        <time>2012-07-24T09:44:19Z</time>
      </trkpt>
      <trkpt lat="47.28753" lon="4.97957">
        <ele>327.836</ele>
        <time>2012-07-24T09:44:30Z</time>
      </trkpt>
      <trkpt lat="47.28732" lon="4.97968">
        <ele>325.02</ele>
        <time>2012-07-24T09:44:41Z</time>
      </trkpt>
      <trkpt lat="47.28717" lon="4.9798">
        <ele>324.867</ele>
        <time>2012-07-24T09:44:52Z</time>
      </trkpt>
      <trkpt lat="47.28695" lon="4.9799">
        <ele>326.171</ele>
        <time>2012-07-24T09:45:03Z</time>
      </trkpt>
      <trkpt lat="47.2868" lon="4.98002">
        <ele>324.51</ele>
        <time>2012-07-24T09:45:14Z</time>
      </trkpt>
      <trkpt lat="47.2867" lon="4.98015">
        <ele>326.07</ele>
        <time>2012-07-24T09:45:25Z</time>
      </trkpt>
      <trkpt lat="47.28652" lon="4.98027">
        <ele>324.315</ele>
        <time>2012-07-24T09:45:36Z</time>
      </trkpt>
      <trkpt lat="47.28642" lon="4.98043">
        <ele>320.858</ele>
        <time>2012-07-24T09:45:47Z</time>
      </trkpt>
      <trkpt lat="47.28632" lon="4.98058">
        <ele>318.14</ele>
        <time>2012-07-24T09:45:58Z</time>
      </trkpt>
      <trkpt lat="47.28622" lon="4.9807">
        <ele>315.904</ele>
        <time>2012-07-24T09:46:09Z</time>
      </trkpt>
      <trkpt lat="47.28613" lon="4.98073">
        <ele>314.6</ele>
        <time>2012-07-24T09:46:20Z</time>
      </trkpt>
      <trkpt lat="47.28598" lon="4.98088">
        <ele>314.401</ele>
        <time>2012-07-24T09:46:31Z</time>
      </trkpt>
      <trkpt lat="47.28587" lon="4.98105">
        <ele>312.476</ele>
        <time>2012-07-24T09:46:42Z</time>
      </trkpt>
      <trkpt lat="47.28577" lon="4.9812">
        <ele>313.214</ele>
        <time>2012-07-24T09:46:53Z</time>
      </trkpt>
      <trkpt lat="47.28573" lon="4.98132">
        <ele>314.267</ele>
        <time>2012-07-24T09:47:04Z</time>
      </trkpt>
      <trkpt lat="47.28562" lon="4.9814">
        <ele>310.478</ele>
        <time>2012-07-24T09:47:15Z</time>
      </trkpt>
      <trkpt lat="47.28553" lon="4.9815">
        <ele>305.326</ele>
        <time>2012-07-24T09:47:26Z</time>
      </trkpt>
      <trkpt lat="47.28532" lon="4.98162">
        <ele>301.249</ele>
        <time>2012-07-24T09:47:37Z</time>
      </trkpt>
      <trkpt lat="47.28518" lon="4.98173">
        <ele>299.1</ele>
        <time>2012-07-24T09:47:48Z</time>
      </trkpt>
      <trkpt lat="47.285" lon="4.98183">
        <ele>300.383</ele>
        <time>2012-07-24T09:47:59Z</time>
      </trkpt>
      <trkpt lat="47.28483" lon="4.98187">
        <ele>296.432</ele>
        <time>2012-07-24T09:48:10Z</time>
      </trkpt>
      <trkpt lat="47.2847" lon="4.98202">
        <ele>297.086</ele>
        <time>2012-07-24T09:48:21Z</time>
      </trkpt>
      <trkpt lat="47.28457" lon="4.9822">
        <ele>299.402</ele>
        <time>2012-07-24T09:48:32Z</time>
      </trkpt>
      <trkpt lat="47.28447" lon="4.98235">
        <ele>300.3</ele>
        <time>2012-07-24T09:48:43Z</time>
      </trkpt>
      <trkpt lat="47.28443" lon="4.9826">
        <ele>300.162</ele>
        <time>2012-07-24T09:48:54Z</time>
      </trkpt>
      <trkpt lat="47.28435" lon="4.98278">
        <ele>300.73</ele>
        <time>2012-07-24T09:49:05Z</time>
      </trkpt>
      <trkpt lat="47.28427" lon="4.98297">
        <ele>302.498</ele>
        <time>2012-07-24T09:49:16Z</time>
      </trkpt>
      <trkpt lat="47.28413" lon="4.9831">
        <ele>301.057</ele>
        <time>2012-07-24T09:49:27Z</time>
      </trkpt>
      <trkpt lat="47.28405" lon="4.98325">
        <ele>302.884</ele>
        <time>2012-07-24T09:49:38Z</time>
      </trkpt>
      <trkpt lat="47.28388" lon="4.98337">
        <ele>303.499</ele>
        <time>2012-07-24T09:49:49Z</time>
      </trkpt>
      <trkpt lat="47.28377" lon="4.98348">
        <ele>302.291</ele>
        <time>2012-07-24T09:50:00Z</time>
      </trkpt>
      <trkpt lat="47.2836" lon="4.98365">
        <ele>303.089</ele>
        <time>2012-07-24T09:50:11Z</time>
      </trkpt>
      <trkpt lat="47.28353" lon="4.98375">
        <ele>303.298</ele>
        <time>2012-07-24T09:50:22Z</time>
      </trkpt>
      <trkpt lat="47.28342" lon="4.98383">
        <ele>303.694</ele>
        <time>2012-07-24T09:50:33Z</time>
      </trkpt>
      <trkpt lat="47.28333" lon="4.98398">
        <ele>305.708</ele>
        <time>2012-07-24T09:50:44Z</time>
      </trkpt>
      <trkpt lat="47.28323" lon="4.9841">
        <ele>304.082</ele>
        <time>2012-07-24T09:50:55Z</time>
      </trkpt>
      <trkpt lat="47.28307" lon="4.98422">
        <ele>298.435</ele>
        <time>2012-07-24T09:51:06Z</time>
      </trkpt>
      <trkpt lat="47.28298" lon="4.9844">
        <ele>297.36</ele>
        <time>2012-07-24T09:51:17Z</time>
      </trkpt>
      <trkpt lat="47.28292" lon="4.9846">
        <ele>298.216</ele>
        <time>2012-07-24T09:51:28Z</time>
      </trkpt>
      <trkpt lat="47.28297" lon="4.98463">
        <ele>296.361</ele>
        <time>2012-07-24T09:51:39Z</time>
      </trkpt>
      <trkpt lat="47.28308" lon="4.98453">
        <ele>294.997</ele>
        <time>2012-07-24T09:51:50Z</time>
      </trkpt>
      <trkpt lat="47.28322" lon="4.98443">
        <ele>297.614</ele>
        <time>2012-07-24T09:52:01Z</time>
      </trkpt>
      <trkpt lat="47.28332" lon="4.98437">
        <ele>299.573</ele>
        <time>2012-07-24T09:52:12Z</time>
      </trkpt>
      <trkpt lat="47.28343" lon="4.98432">
        <ele>300.937</ele>
        <time>2012-07-24T09:52:23Z</time>
      </trkpt>
      <trkpt lat="47.28352" lon="4.98433">
        <ele>303.232</ele>
        <time>2012-07-24T09:52:34Z</time>
      </trkpt>
      <trkpt lat="47.28358" lon="4.98438">
        <ele>304.796</ele>
        <time>2012-07-24T09:52:45Z</time>
      </trkpt>
      <trkpt lat="47.28365" lon="4.98448">
        <ele>304.753</ele>
        <time>2012-07-24T09:52:56Z</time>
      </trkpt>
      <trkpt lat="47.28368" lon="4.98468">
        <ele>303.799</ele>
        <time>2012-07-24T09:53:07Z</time>
      </trkpt>
      <trkpt lat="47.28372" lon="4.9849">
        <ele>306.07</ele>
        <time>2012-07-24T09:53:18Z</time>
      </trkpt>
      <trkpt lat="47.28368" lon="4.985">
        <ele>305.97</ele>
        <time>2012-07-24T09:53:29Z</time>
      </trkpt>
      <trkpt lat="47.28368" lon="4.985">
        <ele>306.271</ele>
        <time>2012-07-24T09:53:40Z</time>
      </trkpt>
      <trkpt lat="47.28368" lon="4.98502">
        <ele>305.883</ele>
        <time>2012-07-24T09:53:51Z</time>
      </trkpt>
      <trkpt lat="47.28365" lon="4.9852">
        <ele>306.018</ele>
        <time>2012-07-24T09:54:02Z</time>
      </trkpt>
      <trkpt lat="47.28362" lon="4.9854">
        <ele>306.292</ele>
        <time>2012-07-24T09:54:13Z</time>
      </trkpt>
      <trkpt lat="47.2836" lon="4.9856">
        <ele>311</ele>
        <time>2012-07-24T09:54:24Z</time>
      </trkpt>
      <trkpt lat="47.28357" lon="4.98583">
        <ele>305.685</ele>
        <time>2012-07-24T09:54:35Z</time>
      </trkpt>
      <trkpt lat="47.28352" lon="4.98605">
        <ele>304.649</ele>
        <time>2012-07-24T09:54:46Z</time>
      </trkpt>
      <trkpt lat="47.28352" lon="4.9862">
        <ele>305.032</ele>
        <time>2012-07-24T09:54:57Z</time>
      </trkpt>
      <trkpt lat="47.28352" lon="4.98637">
        <ele>304.759</ele>
        <time>2012-07-24T09:55:08Z</time>
      </trkpt>
      <trkpt lat="47.28355" lon="4.98653">
        <ele>302.969</ele>
        <time>2012-07-24T09:55:19Z</time>
      </trkpt>
      <trkpt lat="47.28358" lon="4.98668">
        <ele>306.341</ele>
        <time>2012-07-24T09:55:41Z</time>
      </trkpt>
      <trkpt lat="47.28365" lon="4.98682">
        <ele>307.754</ele>
        <time>2012-07-24T09:55:52Z</time>
      </trkpt>
      <trkpt lat="47.28367" lon="4.98688">
        <ele>307.523</ele>
        <time>2012-07-24T09:56:03Z</time>
      </trkpt>
      <trkpt lat="47.28368" lon="4.98702">
        <ele>307.286</ele>
        <time>2012-07-24T09:56:14Z</time>
      </trkpt>
      <trkpt lat="47.28367" lon="4.98725">
        <ele>309.511</ele>
        <time>2012-07-24T09:56:25Z</time>
      </trkpt>
      <trkpt lat="47.28362" lon="4.98742">
        <ele>309.021</ele>
        <time>2012-07-24T09:56:36Z</time>
      </trkpt>
      <trkpt lat="47.28357" lon="4.98757">
        <ele>302.997</ele>
        <time>2012-07-24T09:56:47Z</time>
      </trkpt>
      <trkpt lat="47.28355" lon="4.98775">
        <ele>300.77</ele>
        <time>2012-07-24T09:56:58Z</time>
      </trkpt>
      <trkpt lat="47.28352" lon="4.988">
        <ele>303.846</ele>
        <time>2012-07-24T09:57:09Z</time>
      </trkpt>
      <trkpt lat="47.28352" lon="4.98813">
        <ele>305.068</ele>
        <time>2012-07-24T09:57:20Z</time>
      </trkpt>
      <trkpt lat="47.28353" lon="4.98835">
        <ele>307.949</ele>
        <time>2012-07-24T09:57:31Z</time>
      </trkpt>
      <trkpt lat="47.28362" lon="4.98855">
        <ele>311.911</ele>
        <time>2012-07-24T09:57:42Z</time>
      </trkpt>
      <trkpt lat="47.28365" lon="4.9887">
        <ele>311.171</ele>
        <time>2012-07-24T09:57:53Z</time>
      </trkpt>
      <trkpt lat="47.28368" lon="4.9888">
        <ele>310.133</ele>
        <time>2012-07-24T09:58:04Z</time>
      </trkpt>
      <trkpt lat="47.28373" lon="4.98907">
        <ele>308.659</ele>
        <time>2012-07-24T09:58:15Z</time>
      </trkpt>
      <trkpt lat="47.28385" lon="4.9892">
        <ele>309.824</ele>
        <time>2012-07-24T09:58:26Z</time>
      </trkpt>
      <trkpt lat="47.28388" lon="4.9893">
        <ele>310.655</ele>
        <time>2012-07-24T09:58:37Z</time>
      </trkpt>
      <trkpt lat="47.2839" lon="4.98948">
        <ele>312.738</ele>
        <time>2012-07-24T09:58:48Z</time>
      </trkpt>
      <trkpt lat="47.28397" lon="4.98967">
        <ele>312.654</ele>
        <time>2012-07-24T09:58:59Z</time>
      </trkpt>
      <trkpt lat="47.28403" lon="4.98987">
        <ele>315.986</ele>
        <time>2012-07-24T09:59:10Z</time>
      </trkpt>
      <trkpt lat="47.28407" lon="4.99008">
        <ele>317.176</ele>
        <time>2012-07-24T09:59:21Z</time>
      </trkpt>
      <trkpt lat="47.2841" lon="4.99028">
        <ele>316.118</ele>
        <time>2012-07-24T09:59:32Z</time>
      </trkpt>
      <trkpt lat="47.28412" lon="4.99045">
        <ele>318.811</ele>
        <time>2012-07-24T09:59:43Z</time>
      </trkpt>
      <trkpt lat="47.28417" lon="4.99067">
        <ele>319.547</ele>
        <time>2012-07-24T09:59:54Z</time>
      </trkpt>
      <trkpt lat="47.28423" lon="4.99088">
        <ele>317.346</ele>
        <time>2012-07-24T10:00:05Z</time>
      </trkpt>
      <trkpt lat="47.28425" lon="4.99102">
        <ele>315.667</ele>
        <time>2012-07-24T10:00:16Z</time>
      </trkpt>
      <trkpt lat="47.2843" lon="4.99118">
        <ele>314.652</ele>
        <time>2012-07-24T10:00:27Z</time>
      </trkpt>
      <trkpt lat="47.28433" lon="4.9914">
        <ele>315.015</ele>
        <time>2012-07-24T10:00:38Z</time>
      </trkpt>
      <trkpt lat="47.28437" lon="4.99153">
        <ele>316.156</ele>
        <time>2012-07-24T10:00:49Z</time>
      </trkpt>
      <trkpt lat="47.28443" lon="4.9917">
        <ele>315.532</ele>
        <time>2012-07-24T10:01:00Z</time>
      </trkpt>
      <trkpt lat="47.28447" lon="4.99185">
        <ele>315.043</ele>
        <time>2012-07-24T10:01:11Z</time>
      </trkpt>
      <trkpt lat="47.28445" lon="4.99198">
        <ele>313.78</ele>
        <time>2012-07-24T10:01:22Z</time>
      </trkpt>
      <trkpt lat="47.28448" lon="4.99213">
        <ele>314.608</ele>
        <time>2012-07-24T10:01:33Z</time>
      </trkpt>
      <trkpt lat="47.28452" lon="4.99227">
        <ele>316.346</ele>
        <time>2012-07-24T10:01:44Z</time>
      </trkpt>
      <trkpt lat="47.28458" lon="4.99247">
        <ele>318.162</ele>
        <time>2012-07-24T10:01:55Z</time>
      </trkpt>
      <trkpt lat="47.28467" lon="4.99257">
        <ele>317.731</ele>
        <time>2012-07-24T10:02:06Z</time>
      </trkpt>
      <trkpt lat="47.28478" lon="4.99278">
        <ele>319.412</ele>
        <time>2012-07-24T10:02:17Z</time>
      </trkpt>
      <trkpt lat="47.28487" lon="4.993">
        <ele>320.19</ele>
        <time>2012-07-24T10:02:28Z</time>
      </trkpt>
      <trkpt lat="47.28495" lon="4.99312">
        <ele>323.223</ele>
        <time>2012-07-24T10:02:39Z</time>
      </trkpt>
      <trkpt lat="47.28503" lon="4.99327">
        <ele>324.409</ele>
        <time>2012-07-24T10:02:50Z</time>
      </trkpt>
      <trkpt lat="47.2851" lon="4.99337">
        <ele>323.966</ele>
        <time>2012-07-24T10:03:01Z</time>
      </trkpt>
      <trkpt lat="47.2852" lon="4.99345">
        <ele>322.889</ele>
        <time>2012-07-24T10:03:12Z</time>
      </trkpt>
      <trkpt lat="47.28523" lon="4.99352">
        <ele>307.7</ele>
        <time>2012-07-24T10:03:23Z</time>
      </trkpt>
      <trkpt lat="47.28527" lon="4.99368">
        <ele>320.151</ele>
        <time>2012-07-24T10:03:34Z</time>
      </trkpt>
      <trkpt lat="47.28535" lon="4.9938">
        <ele>320.222</ele>
        <time>2012-07-24T10:03:45Z</time>
      </trkpt>
      <trkpt lat="47.28538" lon="4.99397">
        <ele>319.667</ele>
        <time>2012-07-24T10:03:56Z</time>
      </trkpt>
      <trkpt lat="47.28542" lon="4.99402">
        <ele>317.802</ele>
        <time>2012-07-24T10:04:07Z</time>
      </trkpt>
      <trkpt lat="47.2855" lon="4.99413">
        <ele>317.293</ele>
        <time>2012-07-24T10:04:18Z</time>
      </trkpt>
      <trkpt lat="47.28553" lon="4.99417">
        <ele>316.352</ele>
        <time>2012-07-24T10:04:29Z</time>
      </trkpt>
      <trkpt lat="47.28562" lon="4.99422">
        <ele>315.757</ele>
        <time>2012-07-24T10:04:40Z</time>
      </trkpt>
      <trkpt lat="47.28573" lon="4.99435">
        <ele>302.5</ele>
        <time>2012-07-24T10:04:51Z</time>
      </trkpt>
      <trkpt lat="47.28578" lon="4.99445">
        <ele>314.441</ele>
        <time>2012-07-24T10:05:02Z</time>
      </trkpt>
      <trkpt lat="47.28585" lon="4.99453">
        <ele>314.272</ele>
        <time>2012-07-24T10:05:13Z</time>
      </trkpt>
      <trkpt lat="47.28598" lon="4.9947">
        <ele>315.021</ele>
        <time>2012-07-24T10:05:24Z</time>
      </trkpt>
      <trkpt lat="47.2861" lon="4.99488">
        <ele>311.47</ele>
        <time>2012-07-24T10:05:35Z</time>
      </trkpt>
      <trkpt lat="47.28618" lon="4.995">
        <ele>311.485</ele>
        <time>2012-07-24T10:05:46Z</time>
      </trkpt>
      <trkpt lat="47.28632" lon="4.99507">
        <ele>313.38</ele>
        <time>2012-07-24T10:05:57Z</time>
      </trkpt>
      <trkpt lat="47.2864" lon="4.9951">
        <ele>315.092</ele>
        <time>2012-07-24T10:06:08Z</time>
      </trkpt>
      <trkpt lat="47.28645" lon="4.99512">
        <ele>313.684</ele>
        <time>2012-07-24T10:06:19Z</time>
      </trkpt>
      <trkpt lat="47.28657" lon="4.9952">
        <ele>313.91</ele>
        <time>2012-07-24T10:06:30Z</time>
      </trkpt>
      <trkpt lat="47.28663" lon="4.99523">
        <ele>313.666</ele>
        <time>2012-07-24T10:06:41Z</time>
      </trkpt>
      <trkpt lat="47.28677" lon="4.9953">
        <ele>311.096</ele>
        <time>2012-07-24T10:06:52Z</time>
      </trkpt>
      <trkpt lat="47.28688" lon="4.99545">
        <ele>308.146</ele>
        <time>2012-07-24T10:07:03Z</time>
      </trkpt>
      <trkpt lat="47.287" lon="4.9956">
        <ele>302.317</ele>
        <time>2012-07-24T10:07:14Z</time>
      </trkpt>
      <trkpt lat="47.28707" lon="4.99563">
        <ele>302.441</ele>
        <time>2012-07-24T10:07:25Z</time>
      </trkpt>
      <trkpt lat="47.28712" lon="4.99567">
        <ele>302.371</ele>
        <time>2012-07-24T10:07:36Z</time>
      </trkpt>
      <trkpt lat="47.28727" lon="4.99572">
        <ele>301.102</ele>
        <time>2012-07-24T10:07:47Z</time>
      </trkpt>
      <trkpt lat="47.28743" lon="4.99577">
        <ele>301.074</ele>
        <time>2012-07-24T10:07:58Z</time>
      </trkpt>
      <trkpt lat="47.28752" lon="4.99582">
        <ele>301.567</ele>
        <time>2012-07-24T10:08:09Z</time>
      </trkpt>
      <trkpt lat="47.2877" lon="4.99585">
        <ele>297.546</ele>
        <time>2012-07-24T10:08:20Z</time>
      </trkpt>
      <trkpt lat="47.28783" lon="4.99598">
        <ele>299.004</ele>
        <time>2012-07-24T10:08:31Z</time>
      </trkpt>
      <trkpt lat="47.28797" lon="4.99607">
        <ele>299.548</ele>
        <time>2012-07-24T10:08:42Z</time>
      </trkpt>
      <trkpt lat="47.28805" lon="4.99605">
        <ele>301.4</ele>
        <time>2012-07-24T10:08:53Z</time>
      </trkpt>
      <trkpt lat="47.28817" lon="4.99612">
        <ele>300.723</ele>
        <time>2012-07-24T10:09:04Z</time>
      </trkpt>
      <trkpt lat="47.28838" lon="4.99617">
        <ele>303.809</ele>
        <time>2012-07-24T10:09:15Z</time>
      </trkpt>
      <trkpt lat="47.28853" lon="4.9963">
        <ele>306.846</ele>
        <time>2012-07-24T10:09:26Z</time>
      </trkpt>
      <trkpt lat="47.28863" lon="4.9963">
        <ele>306.652</ele>
        <time>2012-07-24T10:09:37Z</time>
      </trkpt>
      <trkpt lat="47.28873" lon="4.99648">
        <ele>308.329</ele>
        <time>2012-07-24T10:09:48Z</time>
      </trkpt>
      <trkpt lat="47.28875" lon="4.9967">
        <ele>309.295</ele>
        <time>2012-07-24T10:09:59Z</time>
      </trkpt>
      <trkpt lat="47.28873" lon="4.9969">
        <ele>309.555</ele>
        <time>2012-07-24T10:10:10Z</time>
      </trkpt>
      <trkpt lat="47.28872" lon="4.99707">
        <ele>307.01</ele>
        <time>2012-07-24T10:10:21Z</time>
      </trkpt>
      <trkpt lat="47.28872" lon="4.99728">
        <ele>303.286</ele>
        <time>2012-07-24T10:10:32Z</time>
      </trkpt>
      <trkpt lat="47.28868" lon="4.99747">
        <ele>303.841</ele>
        <time>2012-07-24T10:10:43Z</time>
      </trkpt>
      <trkpt lat="47.28867" lon="4.99767">
        <ele>302.854</ele>
        <time>2012-07-24T10:10:54Z</time>
      </trkpt>
      <trkpt lat="47.28867" lon="4.99787">
        <ele>299.71</ele>
        <time>2012-07-24T10:11:05Z</time>
      </trkpt>
      <trkpt lat="47.28865" lon="4.99803">
        <ele>296.344</ele>
        <time>2012-07-24T10:11:16Z</time>
      </trkpt>
      <trkpt lat="47.28865" lon="4.99827">
        <ele>298.601</ele>
        <time>2012-07-24T10:11:27Z</time>
      </trkpt>
      <trkpt lat="47.28863" lon="4.9984">
        <ele>296.09</ele>
        <time>2012-07-24T10:11:38Z</time>
      </trkpt>
      <trkpt lat="47.28867" lon="4.99855">
        <ele>294.034</ele>
        <time>2012-07-24T10:11:49Z</time>
      </trkpt>
      <trkpt lat="47.28875" lon="4.99865">
        <ele>295.441</ele>
        <time>2012-07-24T10:12:00Z</time>
      </trkpt>
      <trkpt lat="47.28882" lon="4.9987">
        <ele>291.235</ele>
        <time>2012-07-24T10:12:11Z</time>
      </trkpt>
      <trkpt lat="47.28892" lon="4.99875">
        <ele>288.676</ele>
        <time>2012-07-24T10:12:22Z</time>
      </trkpt>
      <trkpt lat="47.28907" lon="4.9988">
        <ele>284.846</ele>
        <time>2012-07-24T10:12:33Z</time>
      </trkpt>
      <trkpt lat="47.2892" lon="4.99885">
        <ele>284.642</ele>
        <time>2012-07-24T10:12:44Z</time>
      </trkpt>
      <trkpt lat="47.28933" lon="4.99892">
        <ele>283.77</ele>
        <time>2012-07-24T10:12:55Z</time>
      </trkpt>
      <trkpt lat="47.28953" lon="4.99898">
        <ele>282.418</ele>
        <time>2012-07-24T10:13:06Z</time>
      </trkpt>
      <trkpt lat="47.28968" lon="4.99903">
        <ele>282.144</ele>
        <time>2012-07-24T10:13:17Z</time>
      </trkpt>
      <trkpt lat="47.28983" lon="4.99913">
        <ele>281.09</ele>
        <time>2012-07-24T10:13:28Z</time>
      </trkpt>
      <trkpt lat="47.28997" lon="4.99922">
        <ele>279.651</ele>
        <time>2012-07-24T10:13:39Z</time>
      </trkpt>
      <trkpt lat="47.29008" lon="4.99933">
        <ele>277.931</ele>
        <time>2012-07-24T10:13:50Z</time>
      </trkpt>
      <trkpt lat="47.29022" lon="4.99943">
        <ele>277.033</ele>
        <time>2012-07-24T10:14:01Z</time>
      </trkpt>
      <trkpt lat="47.29035" lon="4.99952">
        <ele>276.789</ele>
        <time>2012-07-24T10:14:12Z</time>
      </trkpt>
      <trkpt lat="47.29047" lon="4.99962">
        <ele>275.582</ele>
        <time>2012-07-24T10:14:23Z</time>
      </trkpt>
      <trkpt lat="47.29058" lon="4.99968">
        <ele>275.2</ele>
        <time>2012-07-24T10:14:34Z</time>
      </trkpt>
      <trkpt lat="47.29073" lon="4.9998">
        <ele>274.513</ele>
        <time>2012-07-24T10:14:45Z</time>
      </trkpt>
      <trkpt lat="47.2908" lon="4.99993">
        <ele>273.691</ele>
        <time>2012-07-24T10:14:56Z</time>
      </trkpt>
      <trkpt lat="47.29077" lon="5.00015">
        <ele>273.801</ele>
        <time>2012-07-24T10:15:07Z</time>
      </trkpt>
      <trkpt lat="47.29075" lon="5.00037">
        <ele>273.836</ele>
        <time>2012-07-24T10:15:18Z</time>
      </trkpt>
      <trkpt lat="47.29068" lon="5.0006">
        <ele>273.452</ele>
        <time>2012-07-24T10:15:29Z</time>
      </trkpt>
      <trkpt lat="47.29065" lon="5.00082">
        <ele>273.23</ele>
        <time>2012-07-24T10:15:40Z</time>
      </trkpt>
      <trkpt lat="47.29063" lon="5.00105">
        <ele>274.349</ele>
        <time>2012-07-24T10:15:51Z</time>
      </trkpt>
      <trkpt lat="47.2906" lon="5.00125">
        <ele>274.022</ele>
        <time>2012-07-24T10:16:02Z</time>
      </trkpt>
      <trkpt lat="47.29055" lon="5.00148">
        <ele>274.475</ele>
        <time>2012-07-24T10:16:13Z</time>
      </trkpt>
      <trkpt lat="47.29047" lon="5.00168">
        <ele>275.759</ele>
        <time>2012-07-24T10:16:24Z</time>
      </trkpt>
      <trkpt lat="47.29047" lon="5.00168">
        <ele>275.846</ele>
        <time>2012-07-24T10:16:35Z</time>
      </trkpt>
      <trkpt lat="47.29048" lon="5.0017">
        <ele>275.645</ele>
        <time>2012-07-24T10:16:46Z</time>
      </trkpt>
      <trkpt lat="47.2906" lon="5.00172">
        <ele>274.15</ele>
        <time>2012-07-24T10:16:57Z</time>
      </trkpt>
      <trkpt lat="47.29072" lon="5.00178">
        <ele>275.374</ele>
        <time>2012-07-24T10:17:08Z</time>
      </trkpt>
      <trkpt lat="47.29083" lon="5.00182">
        <ele>277.28</ele>
        <time>2012-07-24T10:17:19Z</time>
      </trkpt>
      <trkpt lat="47.29097" lon="5.00185">
        <ele>275.493</ele>
        <time>2012-07-24T10:17:30Z</time>
      </trkpt>
      <trkpt lat="47.29102" lon="5.0019">
        <ele>274.932</ele>
        <time>2012-07-24T10:17:41Z</time>
      </trkpt>
      <trkpt lat="47.29102" lon="5.0019">
        <ele>274.659</ele>
        <time>2012-07-24T10:17:52Z</time>
      </trkpt>
      <trkpt lat="47.29102" lon="5.0019">
        <ele>274.659</ele>
        <time>2012-07-24T10:18:03Z</time>
      </trkpt>
      <trkpt lat="47.29102" lon="5.0019">
        <ele>274.659</ele>
        <time>2012-07-24T10:18:14Z</time>
      </trkpt>
      <trkpt lat="47.29102" lon="5.0019">
        <ele>274.659</ele>
        <time>2012-07-24T10:18:25Z</time>
      </trkpt>
      <trkpt lat="47.29102" lon="5.0019">
        <ele>274.659</ele>
        <time>2012-07-24T10:18:36Z</time>
      </trkpt>
      <trkpt lat="47.29103" lon="5.0019">
        <ele>274.536</ele>
        <time>2012-07-24T10:18:47Z</time>
      </trkpt>
      <trkpt lat="47.29103" lon="5.0019">
        <ele>274.536</ele>
        <time>2012-07-24T10:18:58Z</time>
      </trkpt>
      <trkpt lat="47.29103" lon="5.0019">
        <ele>274.536</ele>
        <time>2012-07-24T10:19:09Z</time>
      </trkpt>
      <trkpt lat="47.29103" lon="5.0019">
        <ele>274.536</ele>
        <time>2012-07-24T10:19:20Z</time>
      </trkpt>
      <trkpt lat="47.29103" lon="5.0019">
        <ele>274.489</ele>
        <time>2012-07-24T10:19:31Z</time>
      </trkpt>
      <trkpt lat="47.29108" lon="5.00195">
        <ele>274.386</ele>
        <time>2012-07-24T10:19:42Z</time>
      </trkpt>
      <trkpt lat="47.29118" lon="5.002">
        <ele>273.98</ele>
        <time>2012-07-24T10:19:53Z</time>
      </trkpt>
      <trkpt lat="47.29137" lon="5.00203">
        <ele>275.601</ele>
        <time>2012-07-24T10:20:04Z</time>
      </trkpt>
      <trkpt lat="47.29147" lon="5.00212">
        <ele>274.511</ele>
        <time>2012-07-24T10:20:15Z</time>
      </trkpt>
      <trkpt lat="47.29147" lon="5.00232">
        <ele>272.08</ele>
        <time>2012-07-24T10:20:26Z</time>
      </trkpt>
      <trkpt lat="47.29147" lon="5.00242">
        <ele>270.773</ele>
        <time>2012-07-24T10:20:37Z</time>
      </trkpt>
      <trkpt lat="47.29145" lon="5.00253">
        <ele>271.683</ele>
        <time>2012-07-24T10:20:48Z</time>
      </trkpt>
      <trkpt lat="47.29143" lon="5.00273">
        <ele>271.558</ele>
        <time>2012-07-24T10:20:59Z</time>
      </trkpt>
      <trkpt lat="47.29143" lon="5.00295">
        <ele>273.658</ele>
        <time>2012-07-24T10:21:10Z</time>
      </trkpt>
      <trkpt lat="47.29137" lon="5.00317">
        <ele>275.538</ele>
        <time>2012-07-24T10:21:21Z</time>
      </trkpt>
      <trkpt lat="47.29138" lon="5.00322">
        <ele>275.262</ele>
        <time>2012-07-24T10:21:32Z</time>
      </trkpt>
      <trkpt lat="47.29138" lon="5.00345">
        <ele>277.763</ele>
        <time>2012-07-24T10:21:43Z</time>
      </trkpt>
      <trkpt lat="47.29147" lon="5.00348">
        <ele>278.091</ele>
        <time>2012-07-24T10:21:54Z</time>
      </trkpt>
      <trkpt lat="47.29158" lon="5.00353">
        <ele>279.654</ele>
        <time>2012-07-24T10:22:05Z</time>
      </trkpt>
      <trkpt lat="47.29167" lon="5.00362">
        <ele>277.675</ele>
        <time>2012-07-24T10:22:16Z</time>
      </trkpt>
      <trkpt lat="47.29172" lon="5.00363">
        <ele>277.248</ele>
        <time>2012-07-24T10:22:27Z</time>
      </trkpt>
      <trkpt lat="47.29182" lon="5.00365">
        <ele>275.811</ele>
        <time>2012-07-24T10:22:38Z</time>
      </trkpt>
      <trkpt lat="47.29195" lon="5.00378">
        <ele>273.339</ele>
        <time>2012-07-24T10:22:49Z</time>
      </trkpt>
      <trkpt lat="47.29208" lon="5.00393">
        <ele>272.643</ele>
        <time>2012-07-24T10:23:00Z</time>
      </trkpt>
      <trkpt lat="47.29203" lon="5.00417">
        <ele>275.229</ele>
        <time>2012-07-24T10:23:11Z</time>
      </trkpt>
      <trkpt lat="47.29203" lon="5.00428">
        <ele>278.304</ele>
        <time>2012-07-24T10:23:22Z</time>
      </trkpt>
      <trkpt lat="47.29213" lon="5.00443">
        <ele>281.61</ele>
        <time>2012-07-24T10:23:33Z</time>
      </trkpt>
      <trkpt lat="47.29223" lon="5.00453">
        <ele>282.407</ele>
        <time>2012-07-24T10:23:44Z</time>
      </trkpt>
      <trkpt lat="47.29228" lon="5.00472">
        <ele>283.435</ele>
        <time>2012-07-24T10:23:55Z</time>
      </trkpt>
      <trkpt lat="47.29223" lon="5.00492">
        <ele>282.125</ele>
        <time>2012-07-24T10:24:06Z</time>
      </trkpt>
      <trkpt lat="47.29228" lon="5.00508">
        <ele>265.9</ele>
        <time>2012-07-24T10:24:17Z</time>
      </trkpt>
      <trkpt lat="47.29232" lon="5.00528">
        <ele>277.391</ele>
        <time>2012-07-24T10:24:28Z</time>
      </trkpt>
      <trkpt lat="47.29228" lon="5.00538">
        <ele>275.411</ele>
        <time>2012-07-24T10:24:39Z</time>
      </trkpt>
      <trkpt lat="47.29232" lon="5.00552">
        <ele>274.44</ele>
        <time>2012-07-24T10:24:50Z</time>
      </trkpt>
      <trkpt lat="47.29232" lon="5.00563">
        <ele>275.981</ele>
        <time>2012-07-24T10:25:01Z</time>
      </trkpt>
    </trkseg>
  </trk>
</gpx>